<?xml version="1.0" encoding="UTF-8" standalone="no" ?>
<gpx xmlns="http://www.topografix.com/GPX/1/1" xmlns:xsi="http://www.w3.org/2001/XMLSchema-instance" xsi:schemaLocation="http://www.topografix.com/GPX/1/1 http://www.topografix.com/GPX/1/1/gpx.xsd" version="1.1" creator="VisuGPX - https://www.visugpx.com">
  <metadata>
    <name>Circuit à Roquefort les Pins</name>
    <desc><![CDATA[Bof, Belle vue, mais beaucoup de pousse vélo car pas franchissable en VTT.]]></desc>
  </metadata>
  <wpt lat="49.00243" lon="1.08928">
    <ele>120.77</ele>
    <name><![CDATA[001]]></name>
  </wpt>
  <wpt lat="38.85555" lon="-94.79902">
    <ele>3.01</ele>
    <name><![CDATA[GARMIN]]></name>
  </wpt>
  <wpt lat="50.98288" lon="-1.4639">
    <ele>3.01</ele>
    <name><![CDATA[GRMEUR]]></name>
  </wpt>
  <wpt lat="25.06178" lon="121.64027">
    <ele>3.01</ele>
    <name><![CDATA[GRMTWN]]></name>
  </wpt>
  <wpt lat="43.57746" lon="1.45163">
    <ele>97.22</ele>
    <name><![CDATA[MAP]]></name>
  </wpt>
  <trk>
    <name><![CDATA[ACTIVE LOG: 23 MAI 2011 08:23]]></name>
    <trkseg>
      <trkpt lat="43.66907" lon="7.06822">
        <ele>147.22</ele>
        <time>2011-05-23T06:23:03Z</time>
      </trkpt>
      <trkpt lat="43.66905" lon="7.06817">
        <ele>148.66</ele>
        <time>2011-05-23T06:23:21Z</time>
      </trkpt>
      <trkpt lat="43.66904" lon="7.06818">
        <ele>149.62</ele>
        <time>2011-05-23T06:24:00Z</time>
      </trkpt>
      <trkpt lat="43.66906" lon="7.06819">
        <ele>150.58</ele>
        <time>2011-05-23T06:24:16Z</time>
      </trkpt>
      <trkpt lat="43.66907" lon="7.0682">
        <ele>150.1</ele>
        <time>2011-05-23T06:24:37Z</time>
      </trkpt>
      <trkpt lat="43.66905" lon="7.06819">
        <ele>150.1</ele>
        <time>2011-05-23T06:24:59Z</time>
      </trkpt>
      <trkpt lat="43.66905" lon="7.06819">
        <ele>150.58</ele>
        <time>2011-05-23T06:25:01Z</time>
      </trkpt>
      <trkpt lat="43.669" lon="7.06819">
        <ele>150.1</ele>
        <time>2011-05-23T06:25:07Z</time>
      </trkpt>
      <trkpt lat="43.66896" lon="7.06827">
        <ele>150.1</ele>
        <time>2011-05-23T06:25:17Z</time>
      </trkpt>
      <trkpt lat="43.66902" lon="7.06826">
        <ele>150.58</ele>
        <time>2011-05-23T06:25:24Z</time>
      </trkpt>
      <trkpt lat="43.66894" lon="7.06822">
        <ele>151.06</ele>
        <time>2011-05-23T06:25:37Z</time>
      </trkpt>
      <trkpt lat="43.66895" lon="7.06825">
        <ele>151.06</ele>
        <time>2011-05-23T06:25:39Z</time>
      </trkpt>
      <trkpt lat="43.66897" lon="7.06828">
        <ele>152.03</ele>
        <time>2011-05-23T06:25:42Z</time>
      </trkpt>
      <trkpt lat="43.66901" lon="7.06826">
        <ele>151.54</ele>
        <time>2011-05-23T06:25:47Z</time>
      </trkpt>
      <trkpt lat="43.66895" lon="7.06819">
        <ele>151.54</ele>
        <time>2011-05-23T06:25:58Z</time>
      </trkpt>
      <trkpt lat="43.66895" lon="7.06823">
        <ele>151.54</ele>
        <time>2011-05-23T06:26:01Z</time>
      </trkpt>
      <trkpt lat="43.66902" lon="7.06819">
        <ele>151.54</ele>
        <time>2011-05-23T06:26:13Z</time>
      </trkpt>
      <trkpt lat="43.66899" lon="7.06817">
        <ele>152.51</ele>
        <time>2011-05-23T06:26:16Z</time>
      </trkpt>
      <trkpt lat="43.66896" lon="7.0682">
        <ele>152.03</ele>
        <time>2011-05-23T06:26:20Z</time>
      </trkpt>
      <trkpt lat="43.66895" lon="7.06823">
        <ele>152.51</ele>
        <time>2011-05-23T06:26:22Z</time>
      </trkpt>
      <trkpt lat="43.66902" lon="7.0682">
        <ele>152.03</ele>
        <time>2011-05-23T06:26:32Z</time>
      </trkpt>
      <trkpt lat="43.66896" lon="7.06822">
        <ele>152.51</ele>
        <time>2011-05-23T06:26:43Z</time>
      </trkpt>
      <trkpt lat="43.66897" lon="7.06822">
        <ele>153.47</ele>
        <time>2011-05-23T06:26:55Z</time>
      </trkpt>
      <trkpt lat="43.66897" lon="7.06848">
        <ele>154.43</ele>
        <time>2011-05-23T06:27:09Z</time>
      </trkpt>
      <trkpt lat="43.66917" lon="7.0685">
        <ele>153.95</ele>
        <time>2011-05-23T06:27:18Z</time>
      </trkpt>
      <trkpt lat="43.66928" lon="7.06851">
        <ele>152.51</ele>
        <time>2011-05-23T06:27:27Z</time>
      </trkpt>
      <trkpt lat="43.6694" lon="7.06853">
        <ele>153.47</ele>
        <time>2011-05-23T06:27:40Z</time>
      </trkpt>
      <trkpt lat="43.66942" lon="7.06856">
        <ele>153.95</ele>
        <time>2011-05-23T06:27:58Z</time>
      </trkpt>
      <trkpt lat="43.6694" lon="7.06855">
        <ele>153.95</ele>
        <time>2011-05-23T06:28:11Z</time>
      </trkpt>
      <trkpt lat="43.66942" lon="7.06853">
        <ele>154.91</ele>
        <time>2011-05-23T06:28:32Z</time>
      </trkpt>
      <trkpt lat="43.6695" lon="7.0685">
        <ele>153.47</ele>
        <time>2011-05-23T06:28:37Z</time>
      </trkpt>
      <trkpt lat="43.6696" lon="7.06842">
        <ele>151.54</ele>
        <time>2011-05-23T06:28:40Z</time>
      </trkpt>
      <trkpt lat="43.66973" lon="7.06832">
        <ele>149.62</ele>
        <time>2011-05-23T06:28:43Z</time>
      </trkpt>
      <trkpt lat="43.66985" lon="7.06792">
        <ele>148.18</ele>
        <time>2011-05-23T06:28:50Z</time>
      </trkpt>
      <trkpt lat="43.66995" lon="7.06772">
        <ele>147.7</ele>
        <time>2011-05-23T06:28:55Z</time>
      </trkpt>
      <trkpt lat="43.67042" lon="7.06771">
        <ele>148.66</ele>
        <time>2011-05-23T06:29:05Z</time>
      </trkpt>
      <trkpt lat="43.67065" lon="7.06772">
        <ele>146.74</ele>
        <time>2011-05-23T06:29:09Z</time>
      </trkpt>
      <trkpt lat="43.67091" lon="7.06773">
        <ele>146.26</ele>
        <time>2011-05-23T06:29:13Z</time>
      </trkpt>
      <trkpt lat="43.67112" lon="7.06774">
        <ele>145.78</ele>
        <time>2011-05-23T06:29:16Z</time>
      </trkpt>
      <trkpt lat="43.67126" lon="7.06775">
        <ele>145.3</ele>
        <time>2011-05-23T06:29:18Z</time>
      </trkpt>
      <trkpt lat="43.67145" lon="7.06777">
        <ele>144.82</ele>
        <time>2011-05-23T06:29:21Z</time>
      </trkpt>
      <trkpt lat="43.67161" lon="7.06773">
        <ele>144.82</ele>
        <time>2011-05-23T06:29:24Z</time>
      </trkpt>
      <trkpt lat="43.67177" lon="7.06763">
        <ele>147.22</ele>
        <time>2011-05-23T06:29:28Z</time>
      </trkpt>
      <trkpt lat="43.67193" lon="7.06754">
        <ele>149.62</ele>
        <time>2011-05-23T06:29:39Z</time>
      </trkpt>
      <trkpt lat="43.67214" lon="7.06755">
        <ele>150.58</ele>
        <time>2011-05-23T06:29:52Z</time>
      </trkpt>
      <trkpt lat="43.67207" lon="7.0675">
        <ele>150.58</ele>
        <time>2011-05-23T06:29:56Z</time>
      </trkpt>
      <trkpt lat="43.67185" lon="7.0676">
        <ele>147.7</ele>
        <time>2011-05-23T06:30:04Z</time>
      </trkpt>
      <trkpt lat="43.67184" lon="7.06766">
        <ele>147.22</ele>
        <time>2011-05-23T06:30:13Z</time>
      </trkpt>
      <trkpt lat="43.67183" lon="7.06759">
        <ele>148.18</ele>
        <time>2011-05-23T06:30:28Z</time>
      </trkpt>
      <trkpt lat="43.67183" lon="7.06759">
        <ele>150.1</ele>
        <time>2011-05-23T06:32:35Z</time>
      </trkpt>
      <trkpt lat="43.6719" lon="7.06758">
        <ele>151.06</ele>
        <time>2011-05-23T06:32:40Z</time>
      </trkpt>
      <trkpt lat="43.67215" lon="7.06752">
        <ele>153.47</ele>
        <time>2011-05-23T06:32:53Z</time>
      </trkpt>
      <trkpt lat="43.67222" lon="7.0675">
        <ele>154.91</ele>
        <time>2011-05-23T06:32:58Z</time>
      </trkpt>
      <trkpt lat="43.67228" lon="7.06756">
        <ele>155.39</ele>
        <time>2011-05-23T06:33:05Z</time>
      </trkpt>
      <trkpt lat="43.67232" lon="7.06753">
        <ele>155.87</ele>
        <time>2011-05-23T06:33:08Z</time>
      </trkpt>
      <trkpt lat="43.67238" lon="7.06751">
        <ele>157.31</ele>
        <time>2011-05-23T06:33:12Z</time>
      </trkpt>
      <trkpt lat="43.67255" lon="7.06757">
        <ele>159.72</ele>
        <time>2011-05-23T06:33:24Z</time>
      </trkpt>
      <trkpt lat="43.67267" lon="7.06761">
        <ele>160.68</ele>
        <time>2011-05-23T06:33:32Z</time>
      </trkpt>
      <trkpt lat="43.67271" lon="7.06764">
        <ele>161.16</ele>
        <time>2011-05-23T06:33:36Z</time>
      </trkpt>
      <trkpt lat="43.67282" lon="7.06771">
        <ele>162.6</ele>
        <time>2011-05-23T06:33:45Z</time>
      </trkpt>
      <trkpt lat="43.67298" lon="7.06778">
        <ele>164.04</ele>
        <time>2011-05-23T06:33:56Z</time>
      </trkpt>
      <trkpt lat="43.67317" lon="7.06777">
        <ele>165.48</ele>
        <time>2011-05-23T06:34:09Z</time>
      </trkpt>
      <trkpt lat="43.67338" lon="7.06769">
        <ele>166.93</ele>
        <time>2011-05-23T06:34:24Z</time>
      </trkpt>
      <trkpt lat="43.67352" lon="7.06761">
        <ele>166.45</ele>
        <time>2011-05-23T06:34:37Z</time>
      </trkpt>
      <trkpt lat="43.67353" lon="7.0676">
        <ele>167.41</ele>
        <time>2011-05-23T06:34:38Z</time>
      </trkpt>
      <trkpt lat="43.67375" lon="7.06742">
        <ele>168.37</ele>
        <time>2011-05-23T06:34:54Z</time>
      </trkpt>
      <trkpt lat="43.67409" lon="7.06708">
        <ele>170.77</ele>
        <time>2011-05-23T06:35:12Z</time>
      </trkpt>
      <trkpt lat="43.67437" lon="7.06675">
        <ele>173.17</ele>
        <time>2011-05-23T06:35:29Z</time>
      </trkpt>
      <trkpt lat="43.67459" lon="7.06654">
        <ele>176.06</ele>
        <time>2011-05-23T06:35:45Z</time>
      </trkpt>
      <trkpt lat="43.67479" lon="7.06638">
        <ele>179.42</ele>
        <time>2011-05-23T06:35:58Z</time>
      </trkpt>
      <trkpt lat="43.675" lon="7.06625">
        <ele>182.31</ele>
        <time>2011-05-23T06:36:12Z</time>
      </trkpt>
      <trkpt lat="43.67516" lon="7.06621">
        <ele>185.67</ele>
        <time>2011-05-23T06:36:24Z</time>
      </trkpt>
      <trkpt lat="43.67523" lon="7.06615">
        <ele>186.15</ele>
        <time>2011-05-23T06:36:29Z</time>
      </trkpt>
      <trkpt lat="43.67529" lon="7.06622">
        <ele>187.59</ele>
        <time>2011-05-23T06:36:35Z</time>
      </trkpt>
      <trkpt lat="43.67535" lon="7.06627">
        <ele>187.59</ele>
        <time>2011-05-23T06:36:43Z</time>
      </trkpt>
      <trkpt lat="43.6753" lon="7.0663">
        <ele>188.08</ele>
        <time>2011-05-23T06:36:49Z</time>
      </trkpt>
      <trkpt lat="43.67537" lon="7.06636">
        <ele>188.56</ele>
        <time>2011-05-23T06:36:57Z</time>
      </trkpt>
      <trkpt lat="43.67536" lon="7.0663">
        <ele>188.56</ele>
        <time>2011-05-23T06:37:01Z</time>
      </trkpt>
      <trkpt lat="43.67531" lon="7.06633">
        <ele>188.08</ele>
        <time>2011-05-23T06:37:11Z</time>
      </trkpt>
      <trkpt lat="43.67536" lon="7.06638">
        <ele>188.56</ele>
        <time>2011-05-23T06:37:16Z</time>
      </trkpt>
      <trkpt lat="43.67537" lon="7.06632">
        <ele>189.04</ele>
        <time>2011-05-23T06:37:21Z</time>
      </trkpt>
      <trkpt lat="43.67535" lon="7.06637">
        <ele>189.04</ele>
        <time>2011-05-23T06:37:30Z</time>
      </trkpt>
      <trkpt lat="43.67536" lon="7.06635">
        <ele>190</ele>
        <time>2011-05-23T06:37:43Z</time>
      </trkpt>
      <trkpt lat="43.67537" lon="7.0664">
        <ele>190</ele>
        <time>2011-05-23T06:38:11Z</time>
      </trkpt>
      <trkpt lat="43.67535" lon="7.0668">
        <ele>191.44</ele>
        <time>2011-05-23T06:38:25Z</time>
      </trkpt>
      <trkpt lat="43.67544" lon="7.06741">
        <ele>190.96</ele>
        <time>2011-05-23T06:38:38Z</time>
      </trkpt>
      <trkpt lat="43.67577" lon="7.06776">
        <ele>190.96</ele>
        <time>2011-05-23T06:38:49Z</time>
      </trkpt>
      <trkpt lat="43.67622" lon="7.06818">
        <ele>189.52</ele>
        <time>2011-05-23T06:39:03Z</time>
      </trkpt>
      <trkpt lat="43.67651" lon="7.06847">
        <ele>189.04</ele>
        <time>2011-05-23T06:39:11Z</time>
      </trkpt>
      <trkpt lat="43.67723" lon="7.06892">
        <ele>185.19</ele>
        <time>2011-05-23T06:39:25Z</time>
      </trkpt>
      <trkpt lat="43.6775" lon="7.06909">
        <ele>184.71</ele>
        <time>2011-05-23T06:39:30Z</time>
      </trkpt>
      <trkpt lat="43.67765" lon="7.06919">
        <ele>185.19</ele>
        <time>2011-05-23T06:39:33Z</time>
      </trkpt>
      <trkpt lat="43.67781" lon="7.06927">
        <ele>183.75</ele>
        <time>2011-05-23T06:39:36Z</time>
      </trkpt>
      <trkpt lat="43.67787" lon="7.06928">
        <ele>183.75</ele>
        <time>2011-05-23T06:39:37Z</time>
      </trkpt>
      <trkpt lat="43.67871" lon="7.06942">
        <ele>180.38</ele>
        <time>2011-05-23T06:39:51Z</time>
      </trkpt>
      <trkpt lat="43.67876" lon="7.06943">
        <ele>179.42</ele>
        <time>2011-05-23T06:39:52Z</time>
      </trkpt>
      <trkpt lat="43.67947" lon="7.06952">
        <ele>177.98</ele>
        <time>2011-05-23T06:40:04Z</time>
      </trkpt>
      <trkpt lat="43.67958" lon="7.06954">
        <ele>177.98</ele>
        <time>2011-05-23T06:40:06Z</time>
      </trkpt>
      <trkpt lat="43.68027" lon="7.06957">
        <ele>177.02</ele>
        <time>2011-05-23T06:40:19Z</time>
      </trkpt>
      <trkpt lat="43.68095" lon="7.0695">
        <ele>176.06</ele>
        <time>2011-05-23T06:40:31Z</time>
      </trkpt>
      <trkpt lat="43.68101" lon="7.06951">
        <ele>177.02</ele>
        <time>2011-05-23T06:40:32Z</time>
      </trkpt>
      <trkpt lat="43.68147" lon="7.06956">
        <ele>177.02</ele>
        <time>2011-05-23T06:40:43Z</time>
      </trkpt>
      <trkpt lat="43.6819" lon="7.0696">
        <ele>177.5</ele>
        <time>2011-05-23T06:40:57Z</time>
      </trkpt>
      <trkpt lat="43.68222" lon="7.06957">
        <ele>177.5</ele>
        <time>2011-05-23T06:41:06Z</time>
      </trkpt>
      <trkpt lat="43.68233" lon="7.06953">
        <ele>176.54</ele>
        <time>2011-05-23T06:41:09Z</time>
      </trkpt>
      <trkpt lat="43.68317" lon="7.06925">
        <ele>173.66</ele>
        <time>2011-05-23T06:41:26Z</time>
      </trkpt>
      <trkpt lat="43.68322" lon="7.06923">
        <ele>173.66</ele>
        <time>2011-05-23T06:41:27Z</time>
      </trkpt>
      <trkpt lat="43.68327" lon="7.06921">
        <ele>173.17</ele>
        <time>2011-05-23T06:41:28Z</time>
      </trkpt>
      <trkpt lat="43.68339" lon="7.06912">
        <ele>172.21</ele>
        <time>2011-05-23T06:41:31Z</time>
      </trkpt>
      <trkpt lat="43.68354" lon="7.06898">
        <ele>170.29</ele>
        <time>2011-05-23T06:41:35Z</time>
      </trkpt>
      <trkpt lat="43.68366" lon="7.06881">
        <ele>167.89</ele>
        <time>2011-05-23T06:41:39Z</time>
      </trkpt>
      <trkpt lat="43.68392" lon="7.06872">
        <ele>165.96</ele>
        <time>2011-05-23T06:41:44Z</time>
      </trkpt>
      <trkpt lat="43.68406" lon="7.06877">
        <ele>164.04</ele>
        <time>2011-05-23T06:41:46Z</time>
      </trkpt>
      <trkpt lat="43.68425" lon="7.0689">
        <ele>163.08</ele>
        <time>2011-05-23T06:41:49Z</time>
      </trkpt>
      <trkpt lat="43.68448" lon="7.06892">
        <ele>161.16</ele>
        <time>2011-05-23T06:41:53Z</time>
      </trkpt>
      <trkpt lat="43.68459" lon="7.06881">
        <ele>160.2</ele>
        <time>2011-05-23T06:41:55Z</time>
      </trkpt>
      <trkpt lat="43.68474" lon="7.0685">
        <ele>157.79</ele>
        <time>2011-05-23T06:41:59Z</time>
      </trkpt>
      <trkpt lat="43.68478" lon="7.06843">
        <ele>157.31</ele>
        <time>2011-05-23T06:42:00Z</time>
      </trkpt>
      <trkpt lat="43.68483" lon="7.06835">
        <ele>157.31</ele>
        <time>2011-05-23T06:42:01Z</time>
      </trkpt>
      <trkpt lat="43.68505" lon="7.06792">
        <ele>151.54</ele>
        <time>2011-05-23T06:42:06Z</time>
      </trkpt>
      <trkpt lat="43.68528" lon="7.06756">
        <ele>147.7</ele>
        <time>2011-05-23T06:42:10Z</time>
      </trkpt>
      <trkpt lat="43.68545" lon="7.06728">
        <ele>144.34</ele>
        <time>2011-05-23T06:42:13Z</time>
      </trkpt>
      <trkpt lat="43.68571" lon="7.06683">
        <ele>141.93</ele>
        <time>2011-05-23T06:42:18Z</time>
      </trkpt>
      <trkpt lat="43.68591" lon="7.06647">
        <ele>140.49</ele>
        <time>2011-05-23T06:42:22Z</time>
      </trkpt>
      <trkpt lat="43.68596" lon="7.06638">
        <ele>140.49</ele>
        <time>2011-05-23T06:42:23Z</time>
      </trkpt>
      <trkpt lat="43.68605" lon="7.06621">
        <ele>139.53</ele>
        <time>2011-05-23T06:42:25Z</time>
      </trkpt>
      <trkpt lat="43.68612" lon="7.0661">
        <ele>137.61</ele>
        <time>2011-05-23T06:42:27Z</time>
      </trkpt>
      <trkpt lat="43.68617" lon="7.0659">
        <ele>135.2</ele>
        <time>2011-05-23T06:42:31Z</time>
      </trkpt>
      <trkpt lat="43.68615" lon="7.06569">
        <ele>133.28</ele>
        <time>2011-05-23T06:42:34Z</time>
      </trkpt>
      <trkpt lat="43.6861" lon="7.06552">
        <ele>130.88</ele>
        <time>2011-05-23T06:42:37Z</time>
      </trkpt>
      <trkpt lat="43.68601" lon="7.06529">
        <ele>129.92</ele>
        <time>2011-05-23T06:42:41Z</time>
      </trkpt>
      <trkpt lat="43.68583" lon="7.065">
        <ele>126.07</ele>
        <time>2011-05-23T06:42:47Z</time>
      </trkpt>
      <trkpt lat="43.6858" lon="7.06498">
        <ele>126.07</ele>
        <time>2011-05-23T06:42:48Z</time>
      </trkpt>
      <trkpt lat="43.68566" lon="7.06468">
        <ele>124.63</ele>
        <time>2011-05-23T06:42:58Z</time>
      </trkpt>
      <trkpt lat="43.68559" lon="7.06447">
        <ele>125.11</ele>
        <time>2011-05-23T06:43:04Z</time>
      </trkpt>
      <trkpt lat="43.68532" lon="7.06404">
        <ele>128.95</ele>
        <time>2011-05-23T06:43:18Z</time>
      </trkpt>
      <trkpt lat="43.68509" lon="7.06358">
        <ele>131.84</ele>
        <time>2011-05-23T06:43:35Z</time>
      </trkpt>
      <trkpt lat="43.68498" lon="7.06329">
        <ele>133.28</ele>
        <time>2011-05-23T06:43:49Z</time>
      </trkpt>
      <trkpt lat="43.685" lon="7.06341">
        <ele>133.28</ele>
        <time>2011-05-23T06:43:55Z</time>
      </trkpt>
      <trkpt lat="43.6853" lon="7.06402">
        <ele>128.95</ele>
        <time>2011-05-23T06:44:07Z</time>
      </trkpt>
      <trkpt lat="43.68534" lon="7.06409">
        <ele>128.47</ele>
        <time>2011-05-23T06:44:08Z</time>
      </trkpt>
      <trkpt lat="43.68548" lon="7.06433">
        <ele>127.03</ele>
        <time>2011-05-23T06:44:11Z</time>
      </trkpt>
      <trkpt lat="43.68563" lon="7.06455">
        <ele>125.59</ele>
        <time>2011-05-23T06:44:15Z</time>
      </trkpt>
      <trkpt lat="43.68573" lon="7.06481">
        <ele>125.11</ele>
        <time>2011-05-23T06:44:20Z</time>
      </trkpt>
      <trkpt lat="43.68588" lon="7.06507">
        <ele>128.47</ele>
        <time>2011-05-23T06:44:31Z</time>
      </trkpt>
      <trkpt lat="43.68605" lon="7.06535">
        <ele>131.36</ele>
        <time>2011-05-23T06:44:46Z</time>
      </trkpt>
      <trkpt lat="43.68612" lon="7.06553">
        <ele>134.24</ele>
        <time>2011-05-23T06:44:56Z</time>
      </trkpt>
      <trkpt lat="43.68615" lon="7.06573">
        <ele>135.68</ele>
        <time>2011-05-23T06:45:06Z</time>
      </trkpt>
      <trkpt lat="43.68619" lon="7.06579">
        <ele>135.2</ele>
        <time>2011-05-23T06:45:10Z</time>
      </trkpt>
      <trkpt lat="43.68627" lon="7.06606">
        <ele>136.16</ele>
        <time>2011-05-23T06:45:21Z</time>
      </trkpt>
      <trkpt lat="43.68629" lon="7.06619">
        <ele>136.16</ele>
        <time>2011-05-23T06:45:27Z</time>
      </trkpt>
      <trkpt lat="43.68619" lon="7.06643">
        <ele>136.16</ele>
        <time>2011-05-23T06:45:38Z</time>
      </trkpt>
      <trkpt lat="43.68624" lon="7.06666">
        <ele>136.16</ele>
        <time>2011-05-23T06:45:47Z</time>
      </trkpt>
      <trkpt lat="43.68625" lon="7.06684">
        <ele>136.64</ele>
        <time>2011-05-23T06:45:59Z</time>
      </trkpt>
      <trkpt lat="43.68627" lon="7.06689">
        <ele>137.61</ele>
        <time>2011-05-23T06:46:03Z</time>
      </trkpt>
      <trkpt lat="43.68636" lon="7.06711">
        <ele>138.09</ele>
        <time>2011-05-23T06:46:13Z</time>
      </trkpt>
      <trkpt lat="43.68637" lon="7.06731">
        <ele>138.09</ele>
        <time>2011-05-23T06:46:22Z</time>
      </trkpt>
      <trkpt lat="43.6864" lon="7.06733">
        <ele>138.57</ele>
        <time>2011-05-23T06:46:25Z</time>
      </trkpt>
      <trkpt lat="43.68641" lon="7.06739">
        <ele>140.01</ele>
        <time>2011-05-23T06:46:29Z</time>
      </trkpt>
      <trkpt lat="43.68641" lon="7.06745">
        <ele>140.97</ele>
        <time>2011-05-23T06:46:41Z</time>
      </trkpt>
      <trkpt lat="43.68647" lon="7.06757">
        <ele>143.85</ele>
        <time>2011-05-23T06:46:54Z</time>
      </trkpt>
      <trkpt lat="43.68653" lon="7.06775">
        <ele>147.22</ele>
        <time>2011-05-23T06:47:14Z</time>
      </trkpt>
      <trkpt lat="43.68651" lon="7.06787">
        <ele>150.1</ele>
        <time>2011-05-23T06:47:30Z</time>
      </trkpt>
      <trkpt lat="43.68651" lon="7.06799">
        <ele>152.51</ele>
        <time>2011-05-23T06:47:45Z</time>
      </trkpt>
      <trkpt lat="43.68652" lon="7.06805">
        <ele>153.95</ele>
        <time>2011-05-23T06:47:58Z</time>
      </trkpt>
      <trkpt lat="43.68655" lon="7.06815">
        <ele>157.31</ele>
        <time>2011-05-23T06:48:13Z</time>
      </trkpt>
      <trkpt lat="43.68657" lon="7.06824">
        <ele>159.72</ele>
        <time>2011-05-23T06:48:30Z</time>
      </trkpt>
      <trkpt lat="43.68663" lon="7.06829">
        <ele>160.68</ele>
        <time>2011-05-23T06:48:46Z</time>
      </trkpt>
      <trkpt lat="43.68661" lon="7.06831">
        <ele>162.12</ele>
        <time>2011-05-23T06:49:17Z</time>
      </trkpt>
      <trkpt lat="43.68666" lon="7.06838">
        <ele>164.04</ele>
        <time>2011-05-23T06:49:35Z</time>
      </trkpt>
      <trkpt lat="43.68668" lon="7.06839">
        <ele>165.48</ele>
        <time>2011-05-23T06:49:39Z</time>
      </trkpt>
      <trkpt lat="43.6867" lon="7.06848">
        <ele>167.41</ele>
        <time>2011-05-23T06:49:54Z</time>
      </trkpt>
      <trkpt lat="43.68667" lon="7.06857">
        <ele>168.85</ele>
        <time>2011-05-23T06:50:06Z</time>
      </trkpt>
      <trkpt lat="43.68664" lon="7.0686">
        <ele>168.37</ele>
        <time>2011-05-23T06:50:29Z</time>
      </trkpt>
      <trkpt lat="43.68667" lon="7.06867">
        <ele>171.25</ele>
        <time>2011-05-23T06:51:01Z</time>
      </trkpt>
      <trkpt lat="43.68672" lon="7.06872">
        <ele>173.17</ele>
        <time>2011-05-23T06:51:20Z</time>
      </trkpt>
      <trkpt lat="43.68677" lon="7.06881">
        <ele>173.66</ele>
        <time>2011-05-23T06:51:37Z</time>
      </trkpt>
      <trkpt lat="43.68672" lon="7.06885">
        <ele>173.66</ele>
        <time>2011-05-23T06:51:58Z</time>
      </trkpt>
      <trkpt lat="43.68673" lon="7.06891">
        <ele>174.14</ele>
        <time>2011-05-23T06:52:26Z</time>
      </trkpt>
      <trkpt lat="43.68669" lon="7.06898">
        <ele>174.62</ele>
        <time>2011-05-23T06:52:41Z</time>
      </trkpt>
      <trkpt lat="43.68675" lon="7.06896">
        <ele>176.06</ele>
        <time>2011-05-23T06:52:58Z</time>
      </trkpt>
      <trkpt lat="43.6868" lon="7.06893">
        <ele>177.5</ele>
        <time>2011-05-23T06:53:10Z</time>
      </trkpt>
      <trkpt lat="43.68686" lon="7.06899">
        <ele>179.42</ele>
        <time>2011-05-23T06:53:25Z</time>
      </trkpt>
      <trkpt lat="43.68689" lon="7.069">
        <ele>180.38</ele>
        <time>2011-05-23T06:53:29Z</time>
      </trkpt>
      <trkpt lat="43.68692" lon="7.06903">
        <ele>182.79</ele>
        <time>2011-05-23T06:53:41Z</time>
      </trkpt>
      <trkpt lat="43.68695" lon="7.06911">
        <ele>184.23</ele>
        <time>2011-05-23T06:53:59Z</time>
      </trkpt>
      <trkpt lat="43.68693" lon="7.06914">
        <ele>184.71</ele>
        <time>2011-05-23T06:54:29Z</time>
      </trkpt>
      <trkpt lat="43.68692" lon="7.06911">
        <ele>185.19</ele>
        <time>2011-05-23T06:55:06Z</time>
      </trkpt>
      <trkpt lat="43.68689" lon="7.06909">
        <ele>182.79</ele>
        <time>2011-05-23T06:55:54Z</time>
      </trkpt>
      <trkpt lat="43.68685" lon="7.06901">
        <ele>180.87</ele>
        <time>2011-05-23T06:56:11Z</time>
      </trkpt>
      <trkpt lat="43.68691" lon="7.0689">
        <ele>180.87</ele>
        <time>2011-05-23T06:56:34Z</time>
      </trkpt>
      <trkpt lat="43.687" lon="7.06887">
        <ele>179.9</ele>
        <time>2011-05-23T06:57:01Z</time>
      </trkpt>
      <trkpt lat="43.68704" lon="7.06885">
        <ele>179.9</ele>
        <time>2011-05-23T06:57:06Z</time>
      </trkpt>
      <trkpt lat="43.68709" lon="7.0688">
        <ele>179.9</ele>
        <time>2011-05-23T06:57:19Z</time>
      </trkpt>
      <trkpt lat="43.68706" lon="7.06876">
        <ele>178.94</ele>
        <time>2011-05-23T06:57:36Z</time>
      </trkpt>
      <trkpt lat="43.68702" lon="7.06868">
        <ele>178.46</ele>
        <time>2011-05-23T06:57:52Z</time>
      </trkpt>
      <trkpt lat="43.68699" lon="7.06865">
        <ele>177.02</ele>
        <time>2011-05-23T06:58:16Z</time>
      </trkpt>
      <trkpt lat="43.68694" lon="7.06872">
        <ele>178.46</ele>
        <time>2011-05-23T06:58:34Z</time>
      </trkpt>
      <trkpt lat="43.68692" lon="7.06874">
        <ele>179.42</ele>
        <time>2011-05-23T06:58:38Z</time>
      </trkpt>
      <trkpt lat="43.68687" lon="7.06884">
        <ele>178.94</ele>
        <time>2011-05-23T06:58:57Z</time>
      </trkpt>
      <trkpt lat="43.68675" lon="7.06891">
        <ele>177.98</ele>
        <time>2011-05-23T06:59:14Z</time>
      </trkpt>
      <trkpt lat="43.68671" lon="7.0689">
        <ele>177.98</ele>
        <time>2011-05-23T06:59:36Z</time>
      </trkpt>
      <trkpt lat="43.68672" lon="7.06888">
        <ele>177.98</ele>
        <time>2011-05-23T07:00:11Z</time>
      </trkpt>
      <trkpt lat="43.68664" lon="7.06877">
        <ele>176.54</ele>
        <time>2011-05-23T07:00:39Z</time>
      </trkpt>
      <trkpt lat="43.68662" lon="7.06865">
        <ele>174.62</ele>
        <time>2011-05-23T07:00:59Z</time>
      </trkpt>
      <trkpt lat="43.68661" lon="7.06855">
        <ele>173.17</ele>
        <time>2011-05-23T07:01:16Z</time>
      </trkpt>
      <trkpt lat="43.68665" lon="7.06849">
        <ele>172.69</ele>
        <time>2011-05-23T07:01:30Z</time>
      </trkpt>
      <trkpt lat="43.68662" lon="7.06839">
        <ele>169.81</ele>
        <time>2011-05-23T07:01:48Z</time>
      </trkpt>
      <trkpt lat="43.68657" lon="7.0683">
        <ele>166.93</ele>
        <time>2011-05-23T07:02:07Z</time>
      </trkpt>
      <trkpt lat="43.68653" lon="7.06824">
        <ele>165</ele>
        <time>2011-05-23T07:02:30Z</time>
      </trkpt>
      <trkpt lat="43.68649" lon="7.06813">
        <ele>162.12</ele>
        <time>2011-05-23T07:02:45Z</time>
      </trkpt>
      <trkpt lat="43.68647" lon="7.068">
        <ele>159.24</ele>
        <time>2011-05-23T07:03:00Z</time>
      </trkpt>
      <trkpt lat="43.68645" lon="7.06788">
        <ele>155.87</ele>
        <time>2011-05-23T07:03:10Z</time>
      </trkpt>
      <trkpt lat="43.68643" lon="7.06773">
        <ele>152.99</ele>
        <time>2011-05-23T07:03:24Z</time>
      </trkpt>
      <trkpt lat="43.68643" lon="7.06772">
        <ele>152.51</ele>
        <time>2011-05-23T07:03:25Z</time>
      </trkpt>
      <trkpt lat="43.68643" lon="7.06755">
        <ele>149.62</ele>
        <time>2011-05-23T07:03:39Z</time>
      </trkpt>
      <trkpt lat="43.68642" lon="7.06743">
        <ele>147.7</ele>
        <time>2011-05-23T07:04:05Z</time>
      </trkpt>
      <trkpt lat="43.68642" lon="7.06743">
        <ele>147.7</ele>
        <time>2011-05-23T07:04:40Z</time>
      </trkpt>
      <trkpt lat="43.68631" lon="7.06728">
        <ele>146.26</ele>
        <time>2011-05-23T07:04:48Z</time>
      </trkpt>
      <trkpt lat="43.68624" lon="7.06718">
        <ele>145.78</ele>
        <time>2011-05-23T07:04:52Z</time>
      </trkpt>
      <trkpt lat="43.68621" lon="7.06692">
        <ele>145.78</ele>
        <time>2011-05-23T07:05:02Z</time>
      </trkpt>
      <trkpt lat="43.68621" lon="7.0669">
        <ele>145.3</ele>
        <time>2011-05-23T07:05:03Z</time>
      </trkpt>
      <trkpt lat="43.68622" lon="7.06682">
        <ele>145.3</ele>
        <time>2011-05-23T07:05:06Z</time>
      </trkpt>
      <trkpt lat="43.68621" lon="7.06675">
        <ele>144.82</ele>
        <time>2011-05-23T07:05:09Z</time>
      </trkpt>
      <trkpt lat="43.68631" lon="7.06635">
        <ele>145.78</ele>
        <time>2011-05-23T07:05:24Z</time>
      </trkpt>
      <trkpt lat="43.68623" lon="7.066">
        <ele>145.3</ele>
        <time>2011-05-23T07:05:36Z</time>
      </trkpt>
      <trkpt lat="43.68614" lon="7.0658">
        <ele>145.3</ele>
        <time>2011-05-23T07:05:48Z</time>
      </trkpt>
      <trkpt lat="43.68627" lon="7.06583">
        <ele>144.82</ele>
        <time>2011-05-23T07:06:36Z</time>
      </trkpt>
      <trkpt lat="43.68622" lon="7.06584">
        <ele>146.26</ele>
        <time>2011-05-23T07:06:49Z</time>
      </trkpt>
      <trkpt lat="43.68615" lon="7.06605">
        <ele>149.14</ele>
        <time>2011-05-23T07:07:05Z</time>
      </trkpt>
      <trkpt lat="43.68605" lon="7.06626">
        <ele>151.06</ele>
        <time>2011-05-23T07:07:20Z</time>
      </trkpt>
      <trkpt lat="43.68591" lon="7.06654">
        <ele>152.03</ele>
        <time>2011-05-23T07:07:39Z</time>
      </trkpt>
      <trkpt lat="43.68572" lon="7.06691">
        <ele>153.47</ele>
        <time>2011-05-23T07:07:57Z</time>
      </trkpt>
      <trkpt lat="43.68551" lon="7.06723">
        <ele>156.35</ele>
        <time>2011-05-23T07:08:15Z</time>
      </trkpt>
      <trkpt lat="43.6854" lon="7.06742">
        <ele>158.75</ele>
        <time>2011-05-23T07:08:26Z</time>
      </trkpt>
      <trkpt lat="43.6853" lon="7.06764">
        <ele>162.12</ele>
        <time>2011-05-23T07:08:38Z</time>
      </trkpt>
      <trkpt lat="43.68511" lon="7.06792">
        <ele>165</ele>
        <time>2011-05-23T07:08:54Z</time>
      </trkpt>
      <trkpt lat="43.68497" lon="7.06821">
        <ele>168.37</ele>
        <time>2011-05-23T07:09:09Z</time>
      </trkpt>
      <trkpt lat="43.6848" lon="7.06856">
        <ele>171.73</ele>
        <time>2011-05-23T07:09:29Z</time>
      </trkpt>
      <trkpt lat="43.68457" lon="7.06884">
        <ele>173.66</ele>
        <time>2011-05-23T07:09:46Z</time>
      </trkpt>
      <trkpt lat="43.68429" lon="7.06893">
        <ele>175.58</ele>
        <time>2011-05-23T07:10:03Z</time>
      </trkpt>
      <trkpt lat="43.68401" lon="7.06879">
        <ele>177.5</ele>
        <time>2011-05-23T07:10:22Z</time>
      </trkpt>
      <trkpt lat="43.68386" lon="7.06878">
        <ele>178.46</ele>
        <time>2011-05-23T07:10:36Z</time>
      </trkpt>
      <trkpt lat="43.68383" lon="7.06878">
        <ele>178.94</ele>
        <time>2011-05-23T07:11:00Z</time>
      </trkpt>
      <trkpt lat="43.6838" lon="7.06873">
        <ele>179.9</ele>
        <time>2011-05-23T07:12:07Z</time>
      </trkpt>
      <trkpt lat="43.68375" lon="7.06868">
        <ele>181.35</ele>
        <time>2011-05-23T07:12:22Z</time>
      </trkpt>
      <trkpt lat="43.68373" lon="7.06867">
        <ele>182.79</ele>
        <time>2011-05-23T07:12:25Z</time>
      </trkpt>
      <trkpt lat="43.68359" lon="7.06865">
        <ele>185.19</ele>
        <time>2011-05-23T07:12:46Z</time>
      </trkpt>
      <trkpt lat="43.6835" lon="7.0687">
        <ele>187.11</ele>
        <time>2011-05-23T07:13:08Z</time>
      </trkpt>
      <trkpt lat="43.68346" lon="7.06867">
        <ele>188.56</ele>
        <time>2011-05-23T07:13:47Z</time>
      </trkpt>
      <trkpt lat="43.68337" lon="7.06859">
        <ele>191.44</ele>
        <time>2011-05-23T07:14:05Z</time>
      </trkpt>
      <trkpt lat="43.6833" lon="7.06848">
        <ele>192.88</ele>
        <time>2011-05-23T07:14:24Z</time>
      </trkpt>
      <trkpt lat="43.6832" lon="7.06837">
        <ele>194.8</ele>
        <time>2011-05-23T07:14:43Z</time>
      </trkpt>
      <trkpt lat="43.68312" lon="7.06824">
        <ele>197.69</ele>
        <time>2011-05-23T07:15:02Z</time>
      </trkpt>
      <trkpt lat="43.68305" lon="7.06809">
        <ele>200.57</ele>
        <time>2011-05-23T07:15:20Z</time>
      </trkpt>
      <trkpt lat="43.683" lon="7.06786">
        <ele>204.42</ele>
        <time>2011-05-23T07:15:43Z</time>
      </trkpt>
      <trkpt lat="43.68293" lon="7.06772">
        <ele>206.82</ele>
        <time>2011-05-23T07:16:04Z</time>
      </trkpt>
      <trkpt lat="43.6829" lon="7.06768">
        <ele>208.26</ele>
        <time>2011-05-23T07:16:21Z</time>
      </trkpt>
      <trkpt lat="43.68285" lon="7.06761">
        <ele>209.22</ele>
        <time>2011-05-23T07:16:37Z</time>
      </trkpt>
      <trkpt lat="43.68276" lon="7.06761">
        <ele>206.34</ele>
        <time>2011-05-23T07:16:54Z</time>
      </trkpt>
      <trkpt lat="43.68273" lon="7.06757">
        <ele>206.82</ele>
        <time>2011-05-23T07:17:08Z</time>
      </trkpt>
      <trkpt lat="43.68271" lon="7.06751">
        <ele>208.26</ele>
        <time>2011-05-23T07:17:18Z</time>
      </trkpt>
      <trkpt lat="43.68273" lon="7.06739">
        <ele>209.7</ele>
        <time>2011-05-23T07:17:31Z</time>
      </trkpt>
      <trkpt lat="43.68268" lon="7.06722">
        <ele>211.15</ele>
        <time>2011-05-23T07:17:49Z</time>
      </trkpt>
      <trkpt lat="43.68262" lon="7.06711">
        <ele>212.11</ele>
        <time>2011-05-23T07:18:03Z</time>
      </trkpt>
      <trkpt lat="43.68264" lon="7.067">
        <ele>213.55</ele>
        <time>2011-05-23T07:18:19Z</time>
      </trkpt>
      <trkpt lat="43.6826" lon="7.06686">
        <ele>213.55</ele>
        <time>2011-05-23T07:18:39Z</time>
      </trkpt>
      <trkpt lat="43.68259" lon="7.06671">
        <ele>215.95</ele>
        <time>2011-05-23T07:18:54Z</time>
      </trkpt>
      <trkpt lat="43.68258" lon="7.06658">
        <ele>217.4</ele>
        <time>2011-05-23T07:19:09Z</time>
      </trkpt>
      <trkpt lat="43.68258" lon="7.0665">
        <ele>219.32</ele>
        <time>2011-05-23T07:19:25Z</time>
      </trkpt>
      <trkpt lat="43.68252" lon="7.06643">
        <ele>219.8</ele>
        <time>2011-05-23T07:19:42Z</time>
      </trkpt>
      <trkpt lat="43.6825" lon="7.06632">
        <ele>220.76</ele>
        <time>2011-05-23T07:19:59Z</time>
      </trkpt>
      <trkpt lat="43.68238" lon="7.06628">
        <ele>223.16</ele>
        <time>2011-05-23T07:20:17Z</time>
      </trkpt>
      <trkpt lat="43.68234" lon="7.06619">
        <ele>224.12</ele>
        <time>2011-05-23T07:20:33Z</time>
      </trkpt>
      <trkpt lat="43.68229" lon="7.0661">
        <ele>226.05</ele>
        <time>2011-05-23T07:20:48Z</time>
      </trkpt>
      <trkpt lat="43.68224" lon="7.06593">
        <ele>227.97</ele>
        <time>2011-05-23T07:21:09Z</time>
      </trkpt>
      <trkpt lat="43.68218" lon="7.0659">
        <ele>229.89</ele>
        <time>2011-05-23T07:21:23Z</time>
      </trkpt>
      <trkpt lat="43.68211" lon="7.06576">
        <ele>231.81</ele>
        <time>2011-05-23T07:21:45Z</time>
      </trkpt>
      <trkpt lat="43.68201" lon="7.06563">
        <ele>233.26</ele>
        <time>2011-05-23T07:22:04Z</time>
      </trkpt>
      <trkpt lat="43.68193" lon="7.06554">
        <ele>237.1</ele>
        <time>2011-05-23T07:22:21Z</time>
      </trkpt>
      <trkpt lat="43.68184" lon="7.06541">
        <ele>237.1</ele>
        <time>2011-05-23T07:22:39Z</time>
      </trkpt>
      <trkpt lat="43.68183" lon="7.06532">
        <ele>239.02</ele>
        <time>2011-05-23T07:22:53Z</time>
      </trkpt>
      <trkpt lat="43.6818" lon="7.06524">
        <ele>239.99</ele>
        <time>2011-05-23T07:23:05Z</time>
      </trkpt>
      <trkpt lat="43.68176" lon="7.06505">
        <ele>241.43</ele>
        <time>2011-05-23T07:23:23Z</time>
      </trkpt>
      <trkpt lat="43.68176" lon="7.06504">
        <ele>241.43</ele>
        <time>2011-05-23T07:23:24Z</time>
      </trkpt>
      <trkpt lat="43.68176" lon="7.06489">
        <ele>242.39</ele>
        <time>2011-05-23T07:23:41Z</time>
      </trkpt>
      <trkpt lat="43.68173" lon="7.06487">
        <ele>243.35</ele>
        <time>2011-05-23T07:23:55Z</time>
      </trkpt>
      <trkpt lat="43.68166" lon="7.06471">
        <ele>244.31</ele>
        <time>2011-05-23T07:24:09Z</time>
      </trkpt>
      <trkpt lat="43.68164" lon="7.06457">
        <ele>245.27</ele>
        <time>2011-05-23T07:24:21Z</time>
      </trkpt>
      <trkpt lat="43.68163" lon="7.06444">
        <ele>245.27</ele>
        <time>2011-05-23T07:24:36Z</time>
      </trkpt>
      <trkpt lat="43.68164" lon="7.06426">
        <ele>246.72</ele>
        <time>2011-05-23T07:24:57Z</time>
      </trkpt>
      <trkpt lat="43.68164" lon="7.06421">
        <ele>247.2</ele>
        <time>2011-05-23T07:25:02Z</time>
      </trkpt>
      <trkpt lat="43.68162" lon="7.06405">
        <ele>247.2</ele>
        <time>2011-05-23T07:25:17Z</time>
      </trkpt>
      <trkpt lat="43.68162" lon="7.06403">
        <ele>247.2</ele>
        <time>2011-05-23T07:25:19Z</time>
      </trkpt>
      <trkpt lat="43.68165" lon="7.06385">
        <ele>247.68</ele>
        <time>2011-05-23T07:25:33Z</time>
      </trkpt>
      <trkpt lat="43.68162" lon="7.06373">
        <ele>248.16</ele>
        <time>2011-05-23T07:25:49Z</time>
      </trkpt>
      <trkpt lat="43.6816" lon="7.06374">
        <ele>248.64</ele>
        <time>2011-05-23T07:25:53Z</time>
      </trkpt>
      <trkpt lat="43.68157" lon="7.06377">
        <ele>247.68</ele>
        <time>2011-05-23T07:25:58Z</time>
      </trkpt>
      <trkpt lat="43.68154" lon="7.06381">
        <ele>248.16</ele>
        <time>2011-05-23T07:26:02Z</time>
      </trkpt>
      <trkpt lat="43.68151" lon="7.06387">
        <ele>248.16</ele>
        <time>2011-05-23T07:26:19Z</time>
      </trkpt>
      <trkpt lat="43.68151" lon="7.06387">
        <ele>247.68</ele>
        <time>2011-05-23T07:26:31Z</time>
      </trkpt>
      <trkpt lat="43.6815" lon="7.06391">
        <ele>248.64</ele>
        <time>2011-05-23T07:26:34Z</time>
      </trkpt>
      <trkpt lat="43.68139" lon="7.06411">
        <ele>249.6</ele>
        <time>2011-05-23T07:26:44Z</time>
      </trkpt>
      <trkpt lat="43.68127" lon="7.06438">
        <ele>250.08</ele>
        <time>2011-05-23T07:26:57Z</time>
      </trkpt>
      <trkpt lat="43.68126" lon="7.06439">
        <ele>250.08</ele>
        <time>2011-05-23T07:26:58Z</time>
      </trkpt>
      <trkpt lat="43.6811" lon="7.06444">
        <ele>252.48</ele>
        <time>2011-05-23T07:27:09Z</time>
      </trkpt>
      <trkpt lat="43.68108" lon="7.06445">
        <ele>252.48</ele>
        <time>2011-05-23T07:27:11Z</time>
      </trkpt>
      <trkpt lat="43.68102" lon="7.06447">
        <ele>253.44</ele>
        <time>2011-05-23T07:27:16Z</time>
      </trkpt>
      <trkpt lat="43.6811" lon="7.06416">
        <ele>252.48</ele>
        <time>2011-05-23T07:27:31Z</time>
      </trkpt>
      <trkpt lat="43.68112" lon="7.06373">
        <ele>252</ele>
        <time>2011-05-23T07:27:41Z</time>
      </trkpt>
      <trkpt lat="43.68123" lon="7.06344">
        <ele>248.64</ele>
        <time>2011-05-23T07:27:50Z</time>
      </trkpt>
      <trkpt lat="43.68123" lon="7.06327">
        <ele>248.16</ele>
        <time>2011-05-23T07:27:56Z</time>
      </trkpt>
      <trkpt lat="43.68088" lon="7.06302">
        <ele>249.12</ele>
        <time>2011-05-23T07:28:10Z</time>
      </trkpt>
      <trkpt lat="43.6806" lon="7.0627">
        <ele>248.64</ele>
        <time>2011-05-23T07:28:22Z</time>
      </trkpt>
      <trkpt lat="43.6805" lon="7.06241">
        <ele>245.75</ele>
        <time>2011-05-23T07:28:32Z</time>
      </trkpt>
      <trkpt lat="43.68051" lon="7.06229">
        <ele>244.31</ele>
        <time>2011-05-23T07:28:35Z</time>
      </trkpt>
      <trkpt lat="43.6805" lon="7.0622">
        <ele>242.87</ele>
        <time>2011-05-23T07:28:38Z</time>
      </trkpt>
      <trkpt lat="43.68038" lon="7.062">
        <ele>239.99</ele>
        <time>2011-05-23T07:28:45Z</time>
      </trkpt>
      <trkpt lat="43.68018" lon="7.06173">
        <ele>239.99</ele>
        <time>2011-05-23T07:28:55Z</time>
      </trkpt>
      <trkpt lat="43.68016" lon="7.06172">
        <ele>238.54</ele>
        <time>2011-05-23T07:29:09Z</time>
      </trkpt>
      <trkpt lat="43.68016" lon="7.06172">
        <ele>239.02</ele>
        <time>2011-05-23T07:29:28Z</time>
      </trkpt>
      <trkpt lat="43.68005" lon="7.06143">
        <ele>238.06</ele>
        <time>2011-05-23T07:29:37Z</time>
      </trkpt>
      <trkpt lat="43.67996" lon="7.0612">
        <ele>237.1</ele>
        <time>2011-05-23T07:29:41Z</time>
      </trkpt>
      <trkpt lat="43.67988" lon="7.06096">
        <ele>236.14</ele>
        <time>2011-05-23T07:29:45Z</time>
      </trkpt>
      <trkpt lat="43.6797" lon="7.06052">
        <ele>235.18</ele>
        <time>2011-05-23T07:29:53Z</time>
      </trkpt>
      <trkpt lat="43.67951" lon="7.06016">
        <ele>235.66</ele>
        <time>2011-05-23T07:30:01Z</time>
      </trkpt>
      <trkpt lat="43.6795" lon="7.05989">
        <ele>234.22</ele>
        <time>2011-05-23T07:30:06Z</time>
      </trkpt>
      <trkpt lat="43.67949" lon="7.0596">
        <ele>234.22</ele>
        <time>2011-05-23T07:30:11Z</time>
      </trkpt>
      <trkpt lat="43.67941" lon="7.05936">
        <ele>232.78</ele>
        <time>2011-05-23T07:30:16Z</time>
      </trkpt>
      <trkpt lat="43.67937" lon="7.05925">
        <ele>232.3</ele>
        <time>2011-05-23T07:30:18Z</time>
      </trkpt>
      <trkpt lat="43.67931" lon="7.05902">
        <ele>231.81</ele>
        <time>2011-05-23T07:30:22Z</time>
      </trkpt>
      <trkpt lat="43.67928" lon="7.0587">
        <ele>232.3</ele>
        <time>2011-05-23T07:30:27Z</time>
      </trkpt>
      <trkpt lat="43.67917" lon="7.05812">
        <ele>233.26</ele>
        <time>2011-05-23T07:30:38Z</time>
      </trkpt>
      <trkpt lat="43.67905" lon="7.05775">
        <ele>234.7</ele>
        <time>2011-05-23T07:30:46Z</time>
      </trkpt>
      <trkpt lat="43.67888" lon="7.05724">
        <ele>236.62</ele>
        <time>2011-05-23T07:30:59Z</time>
      </trkpt>
      <trkpt lat="43.67885" lon="7.05701">
        <ele>236.14</ele>
        <time>2011-05-23T07:31:11Z</time>
      </trkpt>
      <trkpt lat="43.67885" lon="7.05692">
        <ele>235.66</ele>
        <time>2011-05-23T07:31:23Z</time>
      </trkpt>
      <trkpt lat="43.67885" lon="7.05691">
        <ele>236.14</ele>
        <time>2011-05-23T07:31:25Z</time>
      </trkpt>
      <trkpt lat="43.67889" lon="7.05679">
        <ele>235.18</ele>
        <time>2011-05-23T07:31:32Z</time>
      </trkpt>
      <trkpt lat="43.67895" lon="7.05643">
        <ele>235.66</ele>
        <time>2011-05-23T07:31:40Z</time>
      </trkpt>
      <trkpt lat="43.67897" lon="7.0562">
        <ele>234.22</ele>
        <time>2011-05-23T07:31:44Z</time>
      </trkpt>
      <trkpt lat="43.67902" lon="7.05604">
        <ele>234.7</ele>
        <time>2011-05-23T07:31:47Z</time>
      </trkpt>
      <trkpt lat="43.67912" lon="7.05566">
        <ele>232.3</ele>
        <time>2011-05-23T07:31:59Z</time>
      </trkpt>
      <trkpt lat="43.67912" lon="7.05565">
        <ele>231.81</ele>
        <time>2011-05-23T07:32:31Z</time>
      </trkpt>
      <trkpt lat="43.67912" lon="7.05567">
        <ele>232.78</ele>
        <time>2011-05-23T07:32:55Z</time>
      </trkpt>
      <trkpt lat="43.67913" lon="7.05568">
        <ele>232.3</ele>
        <time>2011-05-23T07:33:48Z</time>
      </trkpt>
      <trkpt lat="43.67913" lon="7.05567">
        <ele>231.81</ele>
        <time>2011-05-23T07:34:13Z</time>
      </trkpt>
      <trkpt lat="43.67912" lon="7.05567">
        <ele>231.33</ele>
        <time>2011-05-23T07:35:50Z</time>
      </trkpt>
      <trkpt lat="43.67911" lon="7.05565">
        <ele>231.81</ele>
        <time>2011-05-23T07:36:14Z</time>
      </trkpt>
      <trkpt lat="43.67915" lon="7.05547">
        <ele>231.33</ele>
        <time>2011-05-23T07:37:22Z</time>
      </trkpt>
      <trkpt lat="43.67931" lon="7.05501">
        <ele>227.97</ele>
        <time>2011-05-23T07:37:33Z</time>
      </trkpt>
      <trkpt lat="43.6794" lon="7.05475">
        <ele>225.09</ele>
        <time>2011-05-23T07:37:39Z</time>
      </trkpt>
      <trkpt lat="43.67942" lon="7.05423">
        <ele>221.72</ele>
        <time>2011-05-23T07:37:49Z</time>
      </trkpt>
      <trkpt lat="43.67943" lon="7.05373">
        <ele>218.36</ele>
        <time>2011-05-23T07:38:00Z</time>
      </trkpt>
      <trkpt lat="43.6794" lon="7.05344">
        <ele>216.43</ele>
        <time>2011-05-23T07:38:06Z</time>
      </trkpt>
      <trkpt lat="43.67938" lon="7.05322">
        <ele>213.55</ele>
        <time>2011-05-23T07:38:10Z</time>
      </trkpt>
      <trkpt lat="43.67937" lon="7.05272">
        <ele>211.15</ele>
        <time>2011-05-23T07:38:19Z</time>
      </trkpt>
      <trkpt lat="43.67937" lon="7.05252">
        <ele>209.22</ele>
        <time>2011-05-23T07:38:23Z</time>
      </trkpt>
      <trkpt lat="43.67941" lon="7.05225">
        <ele>207.3</ele>
        <time>2011-05-23T07:38:29Z</time>
      </trkpt>
      <trkpt lat="43.67961" lon="7.05186">
        <ele>203.94</ele>
        <time>2011-05-23T07:38:40Z</time>
      </trkpt>
      <trkpt lat="43.67974" lon="7.05169">
        <ele>202.01</ele>
        <time>2011-05-23T07:38:44Z</time>
      </trkpt>
      <trkpt lat="43.67991" lon="7.05146">
        <ele>200.57</ele>
        <time>2011-05-23T07:38:47Z</time>
      </trkpt>
      <trkpt lat="43.67997" lon="7.05138">
        <ele>199.13</ele>
        <time>2011-05-23T07:38:48Z</time>
      </trkpt>
      <trkpt lat="43.68017" lon="7.05117">
        <ele>198.17</ele>
        <time>2011-05-23T07:38:56Z</time>
      </trkpt>
      <trkpt lat="43.68016" lon="7.05117">
        <ele>198.17</ele>
        <time>2011-05-23T07:39:13Z</time>
      </trkpt>
      <trkpt lat="43.68019" lon="7.05103">
        <ele>197.69</ele>
        <time>2011-05-23T07:39:19Z</time>
      </trkpt>
      <trkpt lat="43.68009" lon="7.05076">
        <ele>197.21</ele>
        <time>2011-05-23T07:39:24Z</time>
      </trkpt>
      <trkpt lat="43.68004" lon="7.05057">
        <ele>198.17</ele>
        <time>2011-05-23T07:39:27Z</time>
      </trkpt>
      <trkpt lat="43.67999" lon="7.05014">
        <ele>198.65</ele>
        <time>2011-05-23T07:39:33Z</time>
      </trkpt>
      <trkpt lat="43.67988" lon="7.04951">
        <ele>199.13</ele>
        <time>2011-05-23T07:39:43Z</time>
      </trkpt>
      <trkpt lat="43.67979" lon="7.04881">
        <ele>199.61</ele>
        <time>2011-05-23T07:39:54Z</time>
      </trkpt>
      <trkpt lat="43.67975" lon="7.04864">
        <ele>200.57</ele>
        <time>2011-05-23T07:39:57Z</time>
      </trkpt>
      <trkpt lat="43.67962" lon="7.04846">
        <ele>201.05</ele>
        <time>2011-05-23T07:40:01Z</time>
      </trkpt>
      <trkpt lat="43.67946" lon="7.04833">
        <ele>201.53</ele>
        <time>2011-05-23T07:40:05Z</time>
      </trkpt>
      <trkpt lat="43.67903" lon="7.04798">
        <ele>202.49</ele>
        <time>2011-05-23T07:40:16Z</time>
      </trkpt>
      <trkpt lat="43.67882" lon="7.04773">
        <ele>202.49</ele>
        <time>2011-05-23T07:40:22Z</time>
      </trkpt>
      <trkpt lat="43.67863" lon="7.04744">
        <ele>203.46</ele>
        <time>2011-05-23T07:40:28Z</time>
      </trkpt>
      <trkpt lat="43.67855" lon="7.04702">
        <ele>204.42</ele>
        <time>2011-05-23T07:40:35Z</time>
      </trkpt>
      <trkpt lat="43.6786" lon="7.04665">
        <ele>204.9</ele>
        <time>2011-05-23T07:40:41Z</time>
      </trkpt>
      <trkpt lat="43.67845" lon="7.04605">
        <ele>206.82</ele>
        <time>2011-05-23T07:40:52Z</time>
      </trkpt>
      <trkpt lat="43.6784" lon="7.04597">
        <ele>206.34</ele>
        <time>2011-05-23T07:40:54Z</time>
      </trkpt>
      <trkpt lat="43.6783" lon="7.04571">
        <ele>206.82</ele>
        <time>2011-05-23T07:40:59Z</time>
      </trkpt>
      <trkpt lat="43.67814" lon="7.04564">
        <ele>207.78</ele>
        <time>2011-05-23T07:41:03Z</time>
      </trkpt>
      <trkpt lat="43.67751" lon="7.04548">
        <ele>209.7</ele>
        <time>2011-05-23T07:41:20Z</time>
      </trkpt>
      <trkpt lat="43.67718" lon="7.04554">
        <ele>213.07</ele>
        <time>2011-05-23T07:41:32Z</time>
      </trkpt>
      <trkpt lat="43.67677" lon="7.04561">
        <ele>215.95</ele>
        <time>2011-05-23T07:41:50Z</time>
      </trkpt>
      <trkpt lat="43.67644" lon="7.04568">
        <ele>217.88</ele>
        <time>2011-05-23T07:42:06Z</time>
      </trkpt>
      <trkpt lat="43.67591" lon="7.04576">
        <ele>216.91</ele>
        <time>2011-05-23T07:42:21Z</time>
      </trkpt>
      <trkpt lat="43.67568" lon="7.04579">
        <ele>216.43</ele>
        <time>2011-05-23T07:42:25Z</time>
      </trkpt>
      <trkpt lat="43.67489" lon="7.04589">
        <ele>214.03</ele>
        <time>2011-05-23T07:42:37Z</time>
      </trkpt>
      <trkpt lat="43.67415" lon="7.04603">
        <ele>212.11</ele>
        <time>2011-05-23T07:42:47Z</time>
      </trkpt>
      <trkpt lat="43.6734" lon="7.04621">
        <ele>213.55</ele>
        <time>2011-05-23T07:42:59Z</time>
      </trkpt>
      <trkpt lat="43.67311" lon="7.04628">
        <ele>211.15</ele>
        <time>2011-05-23T07:43:04Z</time>
      </trkpt>
      <trkpt lat="43.67296" lon="7.04632">
        <ele>210.67</ele>
        <time>2011-05-23T07:43:06Z</time>
      </trkpt>
      <trkpt lat="43.6727" lon="7.04645">
        <ele>207.3</ele>
        <time>2011-05-23T07:43:09Z</time>
      </trkpt>
      <trkpt lat="43.67231" lon="7.04654">
        <ele>203.94</ele>
        <time>2011-05-23T07:43:13Z</time>
      </trkpt>
      <trkpt lat="43.67211" lon="7.04659">
        <ele>202.98</ele>
        <time>2011-05-23T07:43:15Z</time>
      </trkpt>
      <trkpt lat="43.67131" lon="7.04677">
        <ele>201.05</ele>
        <time>2011-05-23T07:43:23Z</time>
      </trkpt>
      <trkpt lat="43.67108" lon="7.04685">
        <ele>200.09</ele>
        <time>2011-05-23T07:43:26Z</time>
      </trkpt>
      <trkpt lat="43.67084" lon="7.04688">
        <ele>199.13</ele>
        <time>2011-05-23T07:43:33Z</time>
      </trkpt>
      <trkpt lat="43.67079" lon="7.04699">
        <ele>199.61</ele>
        <time>2011-05-23T07:43:37Z</time>
      </trkpt>
      <trkpt lat="43.67061" lon="7.04773">
        <ele>200.57</ele>
        <time>2011-05-23T07:43:54Z</time>
      </trkpt>
      <trkpt lat="43.67038" lon="7.04824">
        <ele>201.53</ele>
        <time>2011-05-23T07:44:05Z</time>
      </trkpt>
      <trkpt lat="43.67027" lon="7.0485">
        <ele>202.49</ele>
        <time>2011-05-23T07:44:10Z</time>
      </trkpt>
      <trkpt lat="43.67012" lon="7.04916">
        <ele>203.94</ele>
        <time>2011-05-23T07:44:25Z</time>
      </trkpt>
      <trkpt lat="43.67007" lon="7.04952">
        <ele>203.46</ele>
        <time>2011-05-23T07:44:31Z</time>
      </trkpt>
      <trkpt lat="43.67012" lon="7.05037">
        <ele>205.38</ele>
        <time>2011-05-23T07:44:48Z</time>
      </trkpt>
      <trkpt lat="43.67012" lon="7.05082">
        <ele>207.3</ele>
        <time>2011-05-23T07:45:02Z</time>
      </trkpt>
      <trkpt lat="43.67009" lon="7.05112">
        <ele>210.67</ele>
        <time>2011-05-23T07:45:14Z</time>
      </trkpt>
      <trkpt lat="43.67004" lon="7.05129">
        <ele>212.59</ele>
        <time>2011-05-23T07:45:22Z</time>
      </trkpt>
      <trkpt lat="43.66992" lon="7.05159">
        <ele>216.43</ele>
        <time>2011-05-23T07:45:37Z</time>
      </trkpt>
      <trkpt lat="43.66991" lon="7.05166">
        <ele>217.4</ele>
        <time>2011-05-23T07:45:40Z</time>
      </trkpt>
      <trkpt lat="43.66987" lon="7.0518">
        <ele>218.84</ele>
        <time>2011-05-23T07:45:47Z</time>
      </trkpt>
      <trkpt lat="43.66985" lon="7.05189">
        <ele>219.8</ele>
        <time>2011-05-23T07:45:52Z</time>
      </trkpt>
      <trkpt lat="43.66985" lon="7.05195">
        <ele>220.76</ele>
        <time>2011-05-23T07:45:56Z</time>
      </trkpt>
      <trkpt lat="43.66983" lon="7.05201">
        <ele>221.72</ele>
        <time>2011-05-23T07:45:59Z</time>
      </trkpt>
      <trkpt lat="43.66983" lon="7.05204">
        <ele>221.72</ele>
        <time>2011-05-23T07:46:01Z</time>
      </trkpt>
      <trkpt lat="43.66979" lon="7.05216">
        <ele>223.64</ele>
        <time>2011-05-23T07:46:07Z</time>
      </trkpt>
      <trkpt lat="43.66978" lon="7.05229">
        <ele>225.09</ele>
        <time>2011-05-23T07:46:13Z</time>
      </trkpt>
      <trkpt lat="43.66976" lon="7.05255">
        <ele>227.97</ele>
        <time>2011-05-23T07:46:27Z</time>
      </trkpt>
      <trkpt lat="43.66973" lon="7.0528">
        <ele>228.93</ele>
        <time>2011-05-23T07:46:41Z</time>
      </trkpt>
      <trkpt lat="43.66971" lon="7.05314">
        <ele>230.37</ele>
        <time>2011-05-23T07:46:55Z</time>
      </trkpt>
      <trkpt lat="43.66969" lon="7.05342">
        <ele>231.33</ele>
        <time>2011-05-23T07:47:05Z</time>
      </trkpt>
      <trkpt lat="43.66967" lon="7.05387">
        <ele>232.78</ele>
        <time>2011-05-23T07:47:21Z</time>
      </trkpt>
      <trkpt lat="43.6696" lon="7.0545">
        <ele>235.18</ele>
        <time>2011-05-23T07:47:47Z</time>
      </trkpt>
      <trkpt lat="43.66955" lon="7.0548">
        <ele>238.54</ele>
        <time>2011-05-23T07:48:01Z</time>
      </trkpt>
      <trkpt lat="43.66948" lon="7.05512">
        <ele>241.91</ele>
        <time>2011-05-23T07:48:17Z</time>
      </trkpt>
      <trkpt lat="43.66942" lon="7.05553">
        <ele>244.79</ele>
        <time>2011-05-23T07:48:36Z</time>
      </trkpt>
      <trkpt lat="43.66942" lon="7.05557">
        <ele>245.27</ele>
        <time>2011-05-23T07:48:38Z</time>
      </trkpt>
      <trkpt lat="43.66944" lon="7.05567">
        <ele>245.75</ele>
        <time>2011-05-23T07:48:44Z</time>
      </trkpt>
      <trkpt lat="43.66944" lon="7.05575">
        <ele>246.72</ele>
        <time>2011-05-23T07:48:48Z</time>
      </trkpt>
      <trkpt lat="43.66943" lon="7.05596">
        <ele>247.2</ele>
        <time>2011-05-23T07:49:06Z</time>
      </trkpt>
      <trkpt lat="43.66944" lon="7.05594">
        <ele>247.68</ele>
        <time>2011-05-23T07:49:22Z</time>
      </trkpt>
      <trkpt lat="43.66944" lon="7.05592">
        <ele>247.2</ele>
        <time>2011-05-23T07:49:52Z</time>
      </trkpt>
      <trkpt lat="43.66946" lon="7.05595">
        <ele>247.2</ele>
        <time>2011-05-23T07:50:13Z</time>
      </trkpt>
      <trkpt lat="43.66946" lon="7.05599">
        <ele>247.2</ele>
        <time>2011-05-23T07:50:27Z</time>
      </trkpt>
      <trkpt lat="43.66948" lon="7.05651">
        <ele>245.75</ele>
        <time>2011-05-23T07:50:40Z</time>
      </trkpt>
      <trkpt lat="43.66961" lon="7.05719">
        <ele>247.68</ele>
        <time>2011-05-23T07:50:53Z</time>
      </trkpt>
      <trkpt lat="43.66965" lon="7.05784">
        <ele>248.64</ele>
        <time>2011-05-23T07:51:08Z</time>
      </trkpt>
      <trkpt lat="43.66978" lon="7.05795">
        <ele>249.6</ele>
        <time>2011-05-23T07:51:15Z</time>
      </trkpt>
      <trkpt lat="43.67026" lon="7.05761">
        <ele>250.08</ele>
        <time>2011-05-23T07:51:31Z</time>
      </trkpt>
      <trkpt lat="43.67073" lon="7.05709">
        <ele>252</ele>
        <time>2011-05-23T07:51:47Z</time>
      </trkpt>
      <trkpt lat="43.6712" lon="7.05653">
        <ele>254.41</ele>
        <time>2011-05-23T07:52:04Z</time>
      </trkpt>
      <trkpt lat="43.6718" lon="7.05578">
        <ele>255.85</ele>
        <time>2011-05-23T07:52:26Z</time>
      </trkpt>
      <trkpt lat="43.6722" lon="7.05532">
        <ele>258.25</ele>
        <time>2011-05-23T07:52:44Z</time>
      </trkpt>
      <trkpt lat="43.67227" lon="7.05546">
        <ele>258.73</ele>
        <time>2011-05-23T07:52:59Z</time>
      </trkpt>
      <trkpt lat="43.67232" lon="7.05555">
        <ele>260.65</ele>
        <time>2011-05-23T07:53:12Z</time>
      </trkpt>
      <trkpt lat="43.67246" lon="7.05593">
        <ele>263.06</ele>
        <time>2011-05-23T07:53:28Z</time>
      </trkpt>
      <trkpt lat="43.67259" lon="7.05627">
        <ele>264.98</ele>
        <time>2011-05-23T07:53:47Z</time>
      </trkpt>
      <trkpt lat="43.67263" lon="7.05628">
        <ele>264.98</ele>
        <time>2011-05-23T07:54:03Z</time>
      </trkpt>
      <trkpt lat="43.67263" lon="7.05628">
        <ele>265.46</ele>
        <time>2011-05-23T07:54:26Z</time>
      </trkpt>
      <trkpt lat="43.67285" lon="7.05614">
        <ele>267.38</ele>
        <time>2011-05-23T07:54:43Z</time>
      </trkpt>
      <trkpt lat="43.67309" lon="7.05598">
        <ele>268.83</ele>
        <time>2011-05-23T07:55:02Z</time>
      </trkpt>
      <trkpt lat="43.67326" lon="7.05585">
        <ele>269.79</ele>
        <time>2011-05-23T07:55:18Z</time>
      </trkpt>
      <trkpt lat="43.67331" lon="7.0558">
        <ele>269.31</ele>
        <time>2011-05-23T07:55:23Z</time>
      </trkpt>
      <trkpt lat="43.67336" lon="7.05579">
        <ele>269.79</ele>
        <time>2011-05-23T07:55:30Z</time>
      </trkpt>
      <trkpt lat="43.67336" lon="7.05583">
        <ele>268.83</ele>
        <time>2011-05-23T07:55:34Z</time>
      </trkpt>
      <trkpt lat="43.67331" lon="7.05583">
        <ele>269.31</ele>
        <time>2011-05-23T07:55:39Z</time>
      </trkpt>
      <trkpt lat="43.6733" lon="7.05578">
        <ele>269.31</ele>
        <time>2011-05-23T07:55:44Z</time>
      </trkpt>
      <trkpt lat="43.67311" lon="7.05597">
        <ele>268.83</ele>
        <time>2011-05-23T07:55:56Z</time>
      </trkpt>
      <trkpt lat="43.67274" lon="7.05621">
        <ele>266.9</ele>
        <time>2011-05-23T07:56:04Z</time>
      </trkpt>
      <trkpt lat="43.67257" lon="7.05625">
        <ele>264.98</ele>
        <time>2011-05-23T07:56:07Z</time>
      </trkpt>
      <trkpt lat="43.67248" lon="7.05606">
        <ele>264.5</ele>
        <time>2011-05-23T07:56:11Z</time>
      </trkpt>
      <trkpt lat="43.67245" lon="7.05594">
        <ele>263.54</ele>
        <time>2011-05-23T07:56:13Z</time>
      </trkpt>
      <trkpt lat="43.6723" lon="7.05556">
        <ele>260.17</ele>
        <time>2011-05-23T07:56:21Z</time>
      </trkpt>
      <trkpt lat="43.67229" lon="7.05553">
        <ele>259.69</ele>
        <time>2011-05-23T07:56:22Z</time>
      </trkpt>
      <trkpt lat="43.67227" lon="7.05546">
        <ele>258.73</ele>
        <time>2011-05-23T07:56:27Z</time>
      </trkpt>
      <trkpt lat="43.67226" lon="7.05542">
        <ele>258.73</ele>
        <time>2011-05-23T07:56:40Z</time>
      </trkpt>
      <trkpt lat="43.67228" lon="7.05524">
        <ele>258.73</ele>
        <time>2011-05-23T07:56:45Z</time>
      </trkpt>
      <trkpt lat="43.67243" lon="7.05512">
        <ele>259.21</ele>
        <time>2011-05-23T07:56:53Z</time>
      </trkpt>
      <trkpt lat="43.67265" lon="7.05489">
        <ele>260.65</ele>
        <time>2011-05-23T07:57:11Z</time>
      </trkpt>
      <trkpt lat="43.67268" lon="7.05484">
        <ele>260.65</ele>
        <time>2011-05-23T07:57:22Z</time>
      </trkpt>
      <trkpt lat="43.67293" lon="7.05451">
        <ele>258.25</ele>
        <time>2011-05-23T07:57:35Z</time>
      </trkpt>
      <trkpt lat="43.67333" lon="7.05422">
        <ele>255.37</ele>
        <time>2011-05-23T07:57:50Z</time>
      </trkpt>
      <trkpt lat="43.67338" lon="7.05416">
        <ele>254.89</ele>
        <time>2011-05-23T07:57:56Z</time>
      </trkpt>
      <trkpt lat="43.67342" lon="7.05409">
        <ele>253.93</ele>
        <time>2011-05-23T07:58:01Z</time>
      </trkpt>
      <trkpt lat="43.67346" lon="7.05406">
        <ele>254.89</ele>
        <time>2011-05-23T07:58:05Z</time>
      </trkpt>
      <trkpt lat="43.67349" lon="7.05406">
        <ele>254.89</ele>
        <time>2011-05-23T07:58:07Z</time>
      </trkpt>
      <trkpt lat="43.67375" lon="7.05375">
        <ele>252</ele>
        <time>2011-05-23T07:58:22Z</time>
      </trkpt>
      <trkpt lat="43.67392" lon="7.05353">
        <ele>248.64</ele>
        <time>2011-05-23T07:58:27Z</time>
      </trkpt>
      <trkpt lat="43.67423" lon="7.05317">
        <ele>245.75</ele>
        <time>2011-05-23T07:58:33Z</time>
      </trkpt>
      <trkpt lat="43.67445" lon="7.05293">
        <ele>244.31</ele>
        <time>2011-05-23T07:58:37Z</time>
      </trkpt>
      <trkpt lat="43.67458" lon="7.05276">
        <ele>244.79</ele>
        <time>2011-05-23T07:58:40Z</time>
      </trkpt>
      <trkpt lat="43.67475" lon="7.05261">
        <ele>243.83</ele>
        <time>2011-05-23T07:58:44Z</time>
      </trkpt>
      <trkpt lat="43.67514" lon="7.0525">
        <ele>245.27</ele>
        <time>2011-05-23T07:58:57Z</time>
      </trkpt>
      <trkpt lat="43.67558" lon="7.05236">
        <ele>245.75</ele>
        <time>2011-05-23T07:59:12Z</time>
      </trkpt>
      <trkpt lat="43.67576" lon="7.05232">
        <ele>245.75</ele>
        <time>2011-05-23T07:59:16Z</time>
      </trkpt>
      <trkpt lat="43.67598" lon="7.05233">
        <ele>244.79</ele>
        <time>2011-05-23T07:59:21Z</time>
      </trkpt>
      <trkpt lat="43.67615" lon="7.05235">
        <ele>245.75</ele>
        <time>2011-05-23T07:59:25Z</time>
      </trkpt>
      <trkpt lat="43.67652" lon="7.05238">
        <ele>243.35</ele>
        <time>2011-05-23T07:59:32Z</time>
      </trkpt>
      <trkpt lat="43.6767" lon="7.0525">
        <ele>240.95</ele>
        <time>2011-05-23T07:59:36Z</time>
      </trkpt>
      <trkpt lat="43.67679" lon="7.05259">
        <ele>240.47</ele>
        <time>2011-05-23T07:59:38Z</time>
      </trkpt>
      <trkpt lat="43.67696" lon="7.05271">
        <ele>238.06</ele>
        <time>2011-05-23T07:59:41Z</time>
      </trkpt>
      <trkpt lat="43.67708" lon="7.0528">
        <ele>236.14</ele>
        <time>2011-05-23T07:59:43Z</time>
      </trkpt>
      <trkpt lat="43.67773" lon="7.0531">
        <ele>233.26</ele>
        <time>2011-05-23T07:59:53Z</time>
      </trkpt>
      <trkpt lat="43.67808" lon="7.05337">
        <ele>228.93</ele>
        <time>2011-05-23T08:00:01Z</time>
      </trkpt>
      <trkpt lat="43.67812" lon="7.05341">
        <ele>230.37</ele>
        <time>2011-05-23T08:00:02Z</time>
      </trkpt>
      <trkpt lat="43.67823" lon="7.05355">
        <ele>228.45</ele>
        <time>2011-05-23T08:00:05Z</time>
      </trkpt>
      <trkpt lat="43.67844" lon="7.05373">
        <ele>227.97</ele>
        <time>2011-05-23T08:00:09Z</time>
      </trkpt>
      <trkpt lat="43.67888" lon="7.05392">
        <ele>225.57</ele>
        <time>2011-05-23T08:00:17Z</time>
      </trkpt>
      <trkpt lat="43.67902" lon="7.05399">
        <ele>223.64</ele>
        <time>2011-05-23T08:00:20Z</time>
      </trkpt>
      <trkpt lat="43.67937" lon="7.05421">
        <ele>220.76</ele>
        <time>2011-05-23T08:00:28Z</time>
      </trkpt>
      <trkpt lat="43.67943" lon="7.05433">
        <ele>222.2</ele>
        <time>2011-05-23T08:00:32Z</time>
      </trkpt>
      <trkpt lat="43.67942" lon="7.05444">
        <ele>222.68</ele>
        <time>2011-05-23T08:00:36Z</time>
      </trkpt>
      <trkpt lat="43.67942" lon="7.05467">
        <ele>224.61</ele>
        <time>2011-05-23T08:00:44Z</time>
      </trkpt>
      <trkpt lat="43.67944" lon="7.05472">
        <ele>225.09</ele>
        <time>2011-05-23T08:00:47Z</time>
      </trkpt>
      <trkpt lat="43.67935" lon="7.05496">
        <ele>227.49</ele>
        <time>2011-05-23T08:00:57Z</time>
      </trkpt>
      <trkpt lat="43.67931" lon="7.0551">
        <ele>227.97</ele>
        <time>2011-05-23T08:01:03Z</time>
      </trkpt>
      <trkpt lat="43.67922" lon="7.05536">
        <ele>229.41</ele>
        <time>2011-05-23T08:01:11Z</time>
      </trkpt>
      <trkpt lat="43.67912" lon="7.05576">
        <ele>231.81</ele>
        <time>2011-05-23T08:01:23Z</time>
      </trkpt>
      <trkpt lat="43.679" lon="7.05613">
        <ele>233.26</ele>
        <time>2011-05-23T08:01:36Z</time>
      </trkpt>
      <trkpt lat="43.67893" lon="7.05663">
        <ele>234.7</ele>
        <time>2011-05-23T08:01:48Z</time>
      </trkpt>
      <trkpt lat="43.67886" lon="7.05691">
        <ele>234.7</ele>
        <time>2011-05-23T08:01:55Z</time>
      </trkpt>
      <trkpt lat="43.67875" lon="7.05709">
        <ele>234.7</ele>
        <time>2011-05-23T08:01:59Z</time>
      </trkpt>
      <trkpt lat="43.67867" lon="7.05726">
        <ele>233.26</ele>
        <time>2011-05-23T08:02:02Z</time>
      </trkpt>
      <trkpt lat="43.67837" lon="7.05764">
        <ele>233.74</ele>
        <time>2011-05-23T08:02:10Z</time>
      </trkpt>
      <trkpt lat="43.67807" lon="7.05824">
        <ele>234.22</ele>
        <time>2011-05-23T08:02:21Z</time>
      </trkpt>
      <trkpt lat="43.67799" lon="7.05844">
        <ele>234.7</ele>
        <time>2011-05-23T08:02:24Z</time>
      </trkpt>
      <trkpt lat="43.67779" lon="7.05864">
        <ele>234.7</ele>
        <time>2011-05-23T08:02:29Z</time>
      </trkpt>
      <trkpt lat="43.67769" lon="7.05863">
        <ele>236.14</ele>
        <time>2011-05-23T08:02:31Z</time>
      </trkpt>
      <trkpt lat="43.67755" lon="7.05866">
        <ele>236.14</ele>
        <time>2011-05-23T08:02:34Z</time>
      </trkpt>
      <trkpt lat="43.67747" lon="7.05871">
        <ele>236.14</ele>
        <time>2011-05-23T08:02:36Z</time>
      </trkpt>
      <trkpt lat="43.67735" lon="7.05894">
        <ele>237.1</ele>
        <time>2011-05-23T08:02:41Z</time>
      </trkpt>
      <trkpt lat="43.67734" lon="7.05907">
        <ele>238.06</ele>
        <time>2011-05-23T08:02:43Z</time>
      </trkpt>
      <trkpt lat="43.67711" lon="7.05985">
        <ele>238.54</ele>
        <time>2011-05-23T08:02:58Z</time>
      </trkpt>
      <trkpt lat="43.67708" lon="7.06">
        <ele>238.06</ele>
        <time>2011-05-23T08:03:12Z</time>
      </trkpt>
      <trkpt lat="43.67707" lon="7.06004">
        <ele>238.06</ele>
        <time>2011-05-23T08:03:31Z</time>
      </trkpt>
      <trkpt lat="43.67705" lon="7.06004">
        <ele>237.58</ele>
        <time>2011-05-23T08:03:53Z</time>
      </trkpt>
      <trkpt lat="43.67705" lon="7.06004">
        <ele>238.06</ele>
        <time>2011-05-23T08:04:17Z</time>
      </trkpt>
      <trkpt lat="43.67703" lon="7.06004">
        <ele>238.06</ele>
        <time>2011-05-23T08:04:54Z</time>
      </trkpt>
      <trkpt lat="43.67709" lon="7.06009">
        <ele>238.06</ele>
        <time>2011-05-23T08:05:04Z</time>
      </trkpt>
      <trkpt lat="43.67713" lon="7.06012">
        <ele>237.58</ele>
        <time>2011-05-23T08:05:25Z</time>
      </trkpt>
      <trkpt lat="43.67712" lon="7.0601">
        <ele>237.58</ele>
        <time>2011-05-23T08:06:08Z</time>
      </trkpt>
      <trkpt lat="43.67709" lon="7.05998">
        <ele>238.06</ele>
        <time>2011-05-23T08:06:22Z</time>
      </trkpt>
      <trkpt lat="43.67705" lon="7.05999">
        <ele>238.06</ele>
        <time>2011-05-23T08:06:57Z</time>
      </trkpt>
      <trkpt lat="43.67706" lon="7.06001">
        <ele>238.06</ele>
        <time>2011-05-23T08:07:12Z</time>
      </trkpt>
      <trkpt lat="43.67706" lon="7.06003">
        <ele>238.06</ele>
        <time>2011-05-23T08:07:47Z</time>
      </trkpt>
      <trkpt lat="43.67706" lon="7.06001">
        <ele>237.58</ele>
        <time>2011-05-23T08:08:04Z</time>
      </trkpt>
      <trkpt lat="43.67706" lon="7.05998">
        <ele>237.58</ele>
        <time>2011-05-23T08:08:50Z</time>
      </trkpt>
      <trkpt lat="43.67707" lon="7.05998">
        <ele>238.06</ele>
        <time>2011-05-23T08:09:37Z</time>
      </trkpt>
      <trkpt lat="43.67707" lon="7.05998">
        <ele>238.06</ele>
        <time>2011-05-23T08:10:17Z</time>
      </trkpt>
      <trkpt lat="43.67706" lon="7.06012">
        <ele>236.62</ele>
        <time>2011-05-23T08:10:23Z</time>
      </trkpt>
      <trkpt lat="43.67687" lon="7.0611">
        <ele>236.62</ele>
        <time>2011-05-23T08:10:37Z</time>
      </trkpt>
      <trkpt lat="43.67679" lon="7.06143">
        <ele>237.1</ele>
        <time>2011-05-23T08:10:43Z</time>
      </trkpt>
      <trkpt lat="43.67671" lon="7.06162">
        <ele>236.62</ele>
        <time>2011-05-23T08:10:47Z</time>
      </trkpt>
      <trkpt lat="43.67664" lon="7.06198">
        <ele>237.58</ele>
        <time>2011-05-23T08:10:53Z</time>
      </trkpt>
      <trkpt lat="43.6764" lon="7.06249">
        <ele>239.02</ele>
        <time>2011-05-23T08:11:05Z</time>
      </trkpt>
      <trkpt lat="43.67633" lon="7.06286">
        <ele>238.06</ele>
        <time>2011-05-23T08:11:13Z</time>
      </trkpt>
      <trkpt lat="43.67635" lon="7.06304">
        <ele>237.1</ele>
        <time>2011-05-23T08:11:16Z</time>
      </trkpt>
      <trkpt lat="43.6764" lon="7.06335">
        <ele>235.66</ele>
        <time>2011-05-23T08:11:21Z</time>
      </trkpt>
      <trkpt lat="43.67646" lon="7.06366">
        <ele>233.74</ele>
        <time>2011-05-23T08:11:26Z</time>
      </trkpt>
      <trkpt lat="43.67649" lon="7.06389">
        <ele>231.81</ele>
        <time>2011-05-23T08:11:30Z</time>
      </trkpt>
      <trkpt lat="43.67641" lon="7.06424">
        <ele>227.97</ele>
        <time>2011-05-23T08:11:37Z</time>
      </trkpt>
      <trkpt lat="43.67639" lon="7.0643">
        <ele>227.49</ele>
        <time>2011-05-23T08:11:38Z</time>
      </trkpt>
      <trkpt lat="43.67636" lon="7.06437">
        <ele>227.01</ele>
        <time>2011-05-23T08:11:39Z</time>
      </trkpt>
      <trkpt lat="43.67631" lon="7.06449">
        <ele>225.57</ele>
        <time>2011-05-23T08:11:41Z</time>
      </trkpt>
      <trkpt lat="43.67631" lon="7.06467">
        <ele>224.12</ele>
        <time>2011-05-23T08:11:44Z</time>
      </trkpt>
      <trkpt lat="43.67636" lon="7.06494">
        <ele>222.68</ele>
        <time>2011-05-23T08:11:48Z</time>
      </trkpt>
      <trkpt lat="43.67635" lon="7.06516">
        <ele>221.72</ele>
        <time>2011-05-23T08:11:51Z</time>
      </trkpt>
      <trkpt lat="43.67632" lon="7.06531">
        <ele>220.28</ele>
        <time>2011-05-23T08:11:53Z</time>
      </trkpt>
      <trkpt lat="43.67618" lon="7.06566">
        <ele>219.8</ele>
        <time>2011-05-23T08:11:58Z</time>
      </trkpt>
      <trkpt lat="43.67611" lon="7.06586">
        <ele>218.84</ele>
        <time>2011-05-23T08:12:01Z</time>
      </trkpt>
      <trkpt lat="43.67596" lon="7.06608">
        <ele>216.43</ele>
        <time>2011-05-23T08:12:07Z</time>
      </trkpt>
      <trkpt lat="43.67585" lon="7.06609">
        <ele>214.51</ele>
        <time>2011-05-23T08:12:10Z</time>
      </trkpt>
      <trkpt lat="43.67581" lon="7.06609">
        <ele>213.55</ele>
        <time>2011-05-23T08:12:11Z</time>
      </trkpt>
      <trkpt lat="43.67564" lon="7.06616">
        <ele>211.15</ele>
        <time>2011-05-23T08:12:15Z</time>
      </trkpt>
      <trkpt lat="43.67555" lon="7.06621">
        <ele>209.7</ele>
        <time>2011-05-23T08:12:17Z</time>
      </trkpt>
      <trkpt lat="43.67538" lon="7.06633">
        <ele>206.82</ele>
        <time>2011-05-23T08:12:22Z</time>
      </trkpt>
      <trkpt lat="43.67535" lon="7.06643">
        <ele>206.82</ele>
        <time>2011-05-23T08:12:28Z</time>
      </trkpt>
      <trkpt lat="43.67529" lon="7.06624">
        <ele>205.38</ele>
        <time>2011-05-23T08:12:36Z</time>
      </trkpt>
      <trkpt lat="43.67516" lon="7.06627">
        <ele>203.46</ele>
        <time>2011-05-23T08:12:40Z</time>
      </trkpt>
      <trkpt lat="43.67492" lon="7.0664">
        <ele>199.61</ele>
        <time>2011-05-23T08:12:45Z</time>
      </trkpt>
      <trkpt lat="43.67475" lon="7.06649">
        <ele>197.69</ele>
        <time>2011-05-23T08:12:48Z</time>
      </trkpt>
      <trkpt lat="43.67469" lon="7.06652">
        <ele>196.25</ele>
        <time>2011-05-23T08:12:49Z</time>
      </trkpt>
      <trkpt lat="43.67445" lon="7.06671">
        <ele>193.84</ele>
        <time>2011-05-23T08:12:53Z</time>
      </trkpt>
      <trkpt lat="43.67418" lon="7.06704">
        <ele>191.92</ele>
        <time>2011-05-23T08:12:58Z</time>
      </trkpt>
      <trkpt lat="43.67412" lon="7.0671">
        <ele>191.44</ele>
        <time>2011-05-23T08:12:59Z</time>
      </trkpt>
      <trkpt lat="43.67395" lon="7.06731">
        <ele>190.48</ele>
        <time>2011-05-23T08:13:02Z</time>
      </trkpt>
      <trkpt lat="43.67357" lon="7.06765">
        <ele>189.52</ele>
        <time>2011-05-23T08:13:08Z</time>
      </trkpt>
      <trkpt lat="43.67339" lon="7.06777">
        <ele>188.08</ele>
        <time>2011-05-23T08:13:11Z</time>
      </trkpt>
      <trkpt lat="43.6732" lon="7.06783">
        <ele>187.59</ele>
        <time>2011-05-23T08:13:14Z</time>
      </trkpt>
      <trkpt lat="43.67294" lon="7.06783">
        <ele>185.67</ele>
        <time>2011-05-23T08:13:18Z</time>
      </trkpt>
      <trkpt lat="43.67278" lon="7.06776">
        <ele>184.23</ele>
        <time>2011-05-23T08:13:21Z</time>
      </trkpt>
      <trkpt lat="43.67257" lon="7.06766">
        <ele>181.35</ele>
        <time>2011-05-23T08:13:25Z</time>
      </trkpt>
      <trkpt lat="43.67233" lon="7.06761">
        <ele>178.46</ele>
        <time>2011-05-23T08:13:32Z</time>
      </trkpt>
      <trkpt lat="43.67229" lon="7.06765">
        <ele>177.5</ele>
        <time>2011-05-23T08:13:35Z</time>
      </trkpt>
      <trkpt lat="43.67199" lon="7.06769">
        <ele>175.1</ele>
        <time>2011-05-23T08:13:45Z</time>
      </trkpt>
      <trkpt lat="43.67186" lon="7.06771">
        <ele>173.66</ele>
        <time>2011-05-23T08:13:47Z</time>
      </trkpt>
      <trkpt lat="43.67154" lon="7.06782">
        <ele>171.25</ele>
        <time>2011-05-23T08:13:51Z</time>
      </trkpt>
      <trkpt lat="43.6711" lon="7.06784">
        <ele>170.77</ele>
        <time>2011-05-23T08:13:57Z</time>
      </trkpt>
      <trkpt lat="43.67072" lon="7.06774">
        <ele>172.69</ele>
        <time>2011-05-23T08:14:05Z</time>
      </trkpt>
      <trkpt lat="43.67038" lon="7.06773">
        <ele>174.14</ele>
        <time>2011-05-23T08:14:13Z</time>
      </trkpt>
      <trkpt lat="43.66988" lon="7.06778">
        <ele>175.1</ele>
        <time>2011-05-23T08:14:28Z</time>
      </trkpt>
      <trkpt lat="43.6699" lon="7.06816">
        <ele>174.14</ele>
        <time>2011-05-23T08:14:36Z</time>
      </trkpt>
      <trkpt lat="43.67013" lon="7.06909">
        <ele>175.58</ele>
        <time>2011-05-23T08:14:53Z</time>
      </trkpt>
      <trkpt lat="43.67032" lon="7.06988">
        <ele>178.46</ele>
        <time>2011-05-23T08:15:09Z</time>
      </trkpt>
      <trkpt lat="43.67049" lon="7.0702">
        <ele>179.9</ele>
        <time>2011-05-23T08:15:25Z</time>
      </trkpt>
      <trkpt lat="43.67052" lon="7.07025">
        <ele>179.42</ele>
        <time>2011-05-23T08:15:28Z</time>
      </trkpt>
      <trkpt lat="43.67076" lon="7.07036">
        <ele>178.46</ele>
        <time>2011-05-23T08:15:44Z</time>
      </trkpt>
      <trkpt lat="43.67106" lon="7.07021">
        <ele>177.5</ele>
        <time>2011-05-23T08:15:59Z</time>
      </trkpt>
      <trkpt lat="43.67159" lon="7.07001">
        <ele>176.54</ele>
        <time>2011-05-23T08:16:14Z</time>
      </trkpt>
      <trkpt lat="43.67185" lon="7.06984">
        <ele>174.14</ele>
        <time>2011-05-23T08:16:21Z</time>
      </trkpt>
      <trkpt lat="43.6721" lon="7.06964">
        <ele>172.21</ele>
        <time>2011-05-23T08:16:27Z</time>
      </trkpt>
      <trkpt lat="43.67221" lon="7.06966">
        <ele>172.21</ele>
        <time>2011-05-23T08:16:29Z</time>
      </trkpt>
      <trkpt lat="43.67237" lon="7.06973">
        <ele>169.81</ele>
        <time>2011-05-23T08:16:32Z</time>
      </trkpt>
      <trkpt lat="43.67259" lon="7.06972">
        <ele>166.93</ele>
        <time>2011-05-23T08:16:37Z</time>
      </trkpt>
      <trkpt lat="43.67269" lon="7.06971">
        <ele>165.48</ele>
        <time>2011-05-23T08:16:39Z</time>
      </trkpt>
      <trkpt lat="43.67294" lon="7.06993">
        <ele>161.64</ele>
        <time>2011-05-23T08:16:45Z</time>
      </trkpt>
      <trkpt lat="43.6731" lon="7.07009">
        <ele>160.2</ele>
        <time>2011-05-23T08:16:49Z</time>
      </trkpt>
      <trkpt lat="43.67322" lon="7.07017">
        <ele>160.2</ele>
        <time>2011-05-23T08:16:51Z</time>
      </trkpt>
      <trkpt lat="43.67352" lon="7.07036">
        <ele>158.27</ele>
        <time>2011-05-23T08:16:56Z</time>
      </trkpt>
      <trkpt lat="43.6738" lon="7.07046">
        <ele>161.16</ele>
        <time>2011-05-23T08:17:05Z</time>
      </trkpt>
      <trkpt lat="43.67386" lon="7.0704">
        <ele>161.16</ele>
        <time>2011-05-23T08:17:09Z</time>
      </trkpt>
      <trkpt lat="43.67396" lon="7.0704">
        <ele>163.08</ele>
        <time>2011-05-23T08:17:14Z</time>
      </trkpt>
      <trkpt lat="43.67399" lon="7.07044">
        <ele>163.08</ele>
        <time>2011-05-23T08:17:17Z</time>
      </trkpt>
      <trkpt lat="43.67402" lon="7.07052">
        <ele>163.08</ele>
        <time>2011-05-23T08:17:30Z</time>
      </trkpt>
      <trkpt lat="43.674" lon="7.07055">
        <ele>161.16</ele>
        <time>2011-05-23T08:17:42Z</time>
      </trkpt>
      <trkpt lat="43.67401" lon="7.07055">
        <ele>161.64</ele>
        <time>2011-05-23T08:17:58Z</time>
      </trkpt>
      <trkpt lat="43.67414" lon="7.07074">
        <ele>158.75</ele>
        <time>2011-05-23T08:18:06Z</time>
      </trkpt>
      <trkpt lat="43.67432" lon="7.07096">
        <ele>155.39</ele>
        <time>2011-05-23T08:18:12Z</time>
      </trkpt>
      <trkpt lat="43.67436" lon="7.07106">
        <ele>153.95</ele>
        <time>2011-05-23T08:18:14Z</time>
      </trkpt>
      <trkpt lat="43.67446" lon="7.07119">
        <ele>152.51</ele>
        <time>2011-05-23T08:18:18Z</time>
      </trkpt>
      <trkpt lat="43.67449" lon="7.07124">
        <ele>151.54</ele>
        <time>2011-05-23T08:18:20Z</time>
      </trkpt>
      <trkpt lat="43.67452" lon="7.07131">
        <ele>150.58</ele>
        <time>2011-05-23T08:18:22Z</time>
      </trkpt>
      <trkpt lat="43.67461" lon="7.07138">
        <ele>149.62</ele>
        <time>2011-05-23T08:18:25Z</time>
      </trkpt>
      <trkpt lat="43.67462" lon="7.07141">
        <ele>149.14</ele>
        <time>2011-05-23T08:18:37Z</time>
      </trkpt>
      <trkpt lat="43.67461" lon="7.0714">
        <ele>149.62</ele>
        <time>2011-05-23T08:18:44Z</time>
      </trkpt>
      <trkpt lat="43.67461" lon="7.07138">
        <ele>149.62</ele>
        <time>2011-05-23T08:18:46Z</time>
      </trkpt>
      <trkpt lat="43.67453" lon="7.07131">
        <ele>150.1</ele>
        <time>2011-05-23T08:18:54Z</time>
      </trkpt>
      <trkpt lat="43.6745" lon="7.07123">
        <ele>150.1</ele>
        <time>2011-05-23T08:19:00Z</time>
      </trkpt>
      <trkpt lat="43.67445" lon="7.07122">
        <ele>151.54</ele>
        <time>2011-05-23T08:19:10Z</time>
      </trkpt>
      <trkpt lat="43.67448" lon="7.07122">
        <ele>150.58</ele>
        <time>2011-05-23T08:19:12Z</time>
      </trkpt>
      <trkpt lat="43.67451" lon="7.07129">
        <ele>151.06</ele>
        <time>2011-05-23T08:19:17Z</time>
      </trkpt>
      <trkpt lat="43.67454" lon="7.07136">
        <ele>149.62</ele>
        <time>2011-05-23T08:19:22Z</time>
      </trkpt>
      <trkpt lat="43.67461" lon="7.07139">
        <ele>149.14</ele>
        <time>2011-05-23T08:19:34Z</time>
      </trkpt>
      <trkpt lat="43.67454" lon="7.07133">
        <ele>151.06</ele>
        <time>2011-05-23T08:19:45Z</time>
      </trkpt>
      <trkpt lat="43.67455" lon="7.07136">
        <ele>149.62</ele>
        <time>2011-05-23T08:19:48Z</time>
      </trkpt>
      <trkpt lat="43.67458" lon="7.07133">
        <ele>149.62</ele>
        <time>2011-05-23T08:19:52Z</time>
      </trkpt>
      <trkpt lat="43.67463" lon="7.07139">
        <ele>149.14</ele>
        <time>2011-05-23T08:20:07Z</time>
      </trkpt>
      <trkpt lat="43.67464" lon="7.07141">
        <ele>149.14</ele>
        <time>2011-05-23T08:20:32Z</time>
      </trkpt>
      <trkpt lat="43.67465" lon="7.07142">
        <ele>149.14</ele>
        <time>2011-05-23T08:21:11Z</time>
      </trkpt>
      <trkpt lat="43.67463" lon="7.07142">
        <ele>149.14</ele>
        <time>2011-05-23T08:21:48Z</time>
      </trkpt>
      <trkpt lat="43.6746" lon="7.07144">
        <ele>148.66</ele>
        <time>2011-05-23T08:22:18Z</time>
      </trkpt>
      <trkpt lat="43.67461" lon="7.07142">
        <ele>149.14</ele>
        <time>2011-05-23T08:22:34Z</time>
      </trkpt>
      <trkpt lat="43.67461" lon="7.07142">
        <ele>148.66</ele>
        <time>2011-05-23T08:22:39Z</time>
      </trkpt>
      <trkpt lat="43.67469" lon="7.07142">
        <ele>148.66</ele>
        <time>2011-05-23T08:22:49Z</time>
      </trkpt>
      <trkpt lat="43.67474" lon="7.07146">
        <ele>148.18</ele>
        <time>2011-05-23T08:22:55Z</time>
      </trkpt>
      <trkpt lat="43.67478" lon="7.07147">
        <ele>147.7</ele>
        <time>2011-05-23T08:22:58Z</time>
      </trkpt>
      <trkpt lat="43.67483" lon="7.07155">
        <ele>147.7</ele>
        <time>2011-05-23T08:23:03Z</time>
      </trkpt>
      <trkpt lat="43.67501" lon="7.07173">
        <ele>144.82</ele>
        <time>2011-05-23T08:23:16Z</time>
      </trkpt>
      <trkpt lat="43.67513" lon="7.07187">
        <ele>142.89</ele>
        <time>2011-05-23T08:23:30Z</time>
      </trkpt>
      <trkpt lat="43.67518" lon="7.07196">
        <ele>141.45</ele>
        <time>2011-05-23T08:23:44Z</time>
      </trkpt>
      <trkpt lat="43.67535" lon="7.07212">
        <ele>139.05</ele>
        <time>2011-05-23T08:23:58Z</time>
      </trkpt>
      <trkpt lat="43.67542" lon="7.07216">
        <ele>138.57</ele>
        <time>2011-05-23T08:24:05Z</time>
      </trkpt>
      <trkpt lat="43.67553" lon="7.07227">
        <ele>134.72</ele>
        <time>2011-05-23T08:24:19Z</time>
      </trkpt>
      <trkpt lat="43.67561" lon="7.07233">
        <ele>132.8</ele>
        <time>2011-05-23T08:24:35Z</time>
      </trkpt>
      <trkpt lat="43.67571" lon="7.07235">
        <ele>129.43</ele>
        <time>2011-05-23T08:24:51Z</time>
      </trkpt>
      <trkpt lat="43.67583" lon="7.07239">
        <ele>126.55</ele>
        <time>2011-05-23T08:25:10Z</time>
      </trkpt>
      <trkpt lat="43.67596" lon="7.07245">
        <ele>123.19</ele>
        <time>2011-05-23T08:25:32Z</time>
      </trkpt>
      <trkpt lat="43.67599" lon="7.07246">
        <ele>123.67</ele>
        <time>2011-05-23T08:25:38Z</time>
      </trkpt>
      <trkpt lat="43.67601" lon="7.07251">
        <ele>122.71</ele>
        <time>2011-05-23T08:25:42Z</time>
      </trkpt>
      <trkpt lat="43.6761" lon="7.07272">
        <ele>122.22</ele>
        <time>2011-05-23T08:25:57Z</time>
      </trkpt>
      <trkpt lat="43.67611" lon="7.07283">
        <ele>121.26</ele>
        <time>2011-05-23T08:26:13Z</time>
      </trkpt>
      <trkpt lat="43.67616" lon="7.07298">
        <ele>120.3</ele>
        <time>2011-05-23T08:26:28Z</time>
      </trkpt>
      <trkpt lat="43.67616" lon="7.07297">
        <ele>120.78</ele>
        <time>2011-05-23T08:26:31Z</time>
      </trkpt>
      <trkpt lat="43.6761" lon="7.0731">
        <ele>120.3</ele>
        <time>2011-05-23T08:26:43Z</time>
      </trkpt>
      <trkpt lat="43.67608" lon="7.07315">
        <ele>119.82</ele>
        <time>2011-05-23T08:26:48Z</time>
      </trkpt>
      <trkpt lat="43.67615" lon="7.07329">
        <ele>118.86</ele>
        <time>2011-05-23T08:27:05Z</time>
      </trkpt>
      <trkpt lat="43.6762" lon="7.07332">
        <ele>118.38</ele>
        <time>2011-05-23T08:27:08Z</time>
      </trkpt>
      <trkpt lat="43.67625" lon="7.07341">
        <ele>120.3</ele>
        <time>2011-05-23T08:27:12Z</time>
      </trkpt>
      <trkpt lat="43.67628" lon="7.07349">
        <ele>121.26</ele>
        <time>2011-05-23T08:27:15Z</time>
      </trkpt>
      <trkpt lat="43.67633" lon="7.07352">
        <ele>121.26</ele>
        <time>2011-05-23T08:27:19Z</time>
      </trkpt>
      <trkpt lat="43.67637" lon="7.0735">
        <ele>122.22</ele>
        <time>2011-05-23T08:27:23Z</time>
      </trkpt>
      <trkpt lat="43.67638" lon="7.07351">
        <ele>121.74</ele>
        <time>2011-05-23T08:27:28Z</time>
      </trkpt>
      <trkpt lat="43.67641" lon="7.07369">
        <ele>120.3</ele>
        <time>2011-05-23T08:27:41Z</time>
      </trkpt>
      <trkpt lat="43.67641" lon="7.07379">
        <ele>119.34</ele>
        <time>2011-05-23T08:27:54Z</time>
      </trkpt>
      <trkpt lat="43.67637" lon="7.07383">
        <ele>119.82</ele>
        <time>2011-05-23T08:28:11Z</time>
      </trkpt>
      <trkpt lat="43.67634" lon="7.07385">
        <ele>117.42</ele>
        <time>2011-05-23T08:28:19Z</time>
      </trkpt>
      <trkpt lat="43.67633" lon="7.07386">
        <ele>117.9</ele>
        <time>2011-05-23T08:28:20Z</time>
      </trkpt>
      <trkpt lat="43.67625" lon="7.07393">
        <ele>116.46</ele>
        <time>2011-05-23T08:28:30Z</time>
      </trkpt>
      <trkpt lat="43.67619" lon="7.07403">
        <ele>115.5</ele>
        <time>2011-05-23T08:28:39Z</time>
      </trkpt>
      <trkpt lat="43.67618" lon="7.07406">
        <ele>116.46</ele>
        <time>2011-05-23T08:28:41Z</time>
      </trkpt>
      <trkpt lat="43.67607" lon="7.07416">
        <ele>114.53</ele>
        <time>2011-05-23T08:28:59Z</time>
      </trkpt>
      <trkpt lat="43.67605" lon="7.07419">
        <ele>114.53</ele>
        <time>2011-05-23T08:29:02Z</time>
      </trkpt>
      <trkpt lat="43.67592" lon="7.07415">
        <ele>114.05</ele>
        <time>2011-05-23T08:29:22Z</time>
      </trkpt>
      <trkpt lat="43.67593" lon="7.07414">
        <ele>115.01</ele>
        <time>2011-05-23T08:29:48Z</time>
      </trkpt>
      <trkpt lat="43.67594" lon="7.07413">
        <ele>114.53</ele>
        <time>2011-05-23T08:30:19Z</time>
      </trkpt>
      <trkpt lat="43.67588" lon="7.07403">
        <ele>115.98</ele>
        <time>2011-05-23T08:30:42Z</time>
      </trkpt>
      <trkpt lat="43.67583" lon="7.07402">
        <ele>117.9</ele>
        <time>2011-05-23T08:30:56Z</time>
      </trkpt>
      <trkpt lat="43.67577" lon="7.07406">
        <ele>120.3</ele>
        <time>2011-05-23T08:31:13Z</time>
      </trkpt>
      <trkpt lat="43.67578" lon="7.07406">
        <ele>120.3</ele>
        <time>2011-05-23T08:31:30Z</time>
      </trkpt>
      <trkpt lat="43.67576" lon="7.07404">
        <ele>120.3</ele>
        <time>2011-05-23T08:32:06Z</time>
      </trkpt>
      <trkpt lat="43.6757" lon="7.07411">
        <ele>120.3</ele>
        <time>2011-05-23T08:33:37Z</time>
      </trkpt>
      <trkpt lat="43.67562" lon="7.07429">
        <ele>119.34</ele>
        <time>2011-05-23T08:33:54Z</time>
      </trkpt>
      <trkpt lat="43.67564" lon="7.07439">
        <ele>118.38</ele>
        <time>2011-05-23T08:34:09Z</time>
      </trkpt>
      <trkpt lat="43.67572" lon="7.07439">
        <ele>118.86</ele>
        <time>2011-05-23T08:34:25Z</time>
      </trkpt>
      <trkpt lat="43.67581" lon="7.0745">
        <ele>118.86</ele>
        <time>2011-05-23T08:34:39Z</time>
      </trkpt>
      <trkpt lat="43.67584" lon="7.07465">
        <ele>118.38</ele>
        <time>2011-05-23T08:34:51Z</time>
      </trkpt>
      <trkpt lat="43.67583" lon="7.07477">
        <ele>118.38</ele>
        <time>2011-05-23T08:34:57Z</time>
      </trkpt>
      <trkpt lat="43.67587" lon="7.07489">
        <ele>117.9</ele>
        <time>2011-05-23T08:35:10Z</time>
      </trkpt>
      <trkpt lat="43.67587" lon="7.07494">
        <ele>118.38</ele>
        <time>2011-05-23T08:35:26Z</time>
      </trkpt>
      <trkpt lat="43.67589" lon="7.07502">
        <ele>119.34</ele>
        <time>2011-05-23T08:35:39Z</time>
      </trkpt>
      <trkpt lat="43.67592" lon="7.07517">
        <ele>119.82</ele>
        <time>2011-05-23T08:35:58Z</time>
      </trkpt>
      <trkpt lat="43.67589" lon="7.07533">
        <ele>121.26</ele>
        <time>2011-05-23T08:36:14Z</time>
      </trkpt>
      <trkpt lat="43.67588" lon="7.07535">
        <ele>120.78</ele>
        <time>2011-05-23T08:36:37Z</time>
      </trkpt>
      <trkpt lat="43.67588" lon="7.07544">
        <ele>121.74</ele>
        <time>2011-05-23T08:36:44Z</time>
      </trkpt>
      <trkpt lat="43.67585" lon="7.07568">
        <ele>122.71</ele>
        <time>2011-05-23T08:37:03Z</time>
      </trkpt>
      <trkpt lat="43.67578" lon="7.07588">
        <ele>124.63</ele>
        <time>2011-05-23T08:37:20Z</time>
      </trkpt>
      <trkpt lat="43.67569" lon="7.07606">
        <ele>126.07</ele>
        <time>2011-05-23T08:37:36Z</time>
      </trkpt>
      <trkpt lat="43.67559" lon="7.0762">
        <ele>127.99</ele>
        <time>2011-05-23T08:37:56Z</time>
      </trkpt>
      <trkpt lat="43.67552" lon="7.0763">
        <ele>129.92</ele>
        <time>2011-05-23T08:38:09Z</time>
      </trkpt>
      <trkpt lat="43.67537" lon="7.07639">
        <ele>129.43</ele>
        <time>2011-05-23T08:38:28Z</time>
      </trkpt>
      <trkpt lat="43.67526" lon="7.07645">
        <ele>129.43</ele>
        <time>2011-05-23T08:38:40Z</time>
      </trkpt>
      <trkpt lat="43.67522" lon="7.0765">
        <ele>129.92</ele>
        <time>2011-05-23T08:38:50Z</time>
      </trkpt>
      <trkpt lat="43.67508" lon="7.07654">
        <ele>132.32</ele>
        <time>2011-05-23T08:39:11Z</time>
      </trkpt>
      <trkpt lat="43.67496" lon="7.07657">
        <ele>133.76</ele>
        <time>2011-05-23T08:39:33Z</time>
      </trkpt>
      <trkpt lat="43.67486" lon="7.07661">
        <ele>135.2</ele>
        <time>2011-05-23T08:39:52Z</time>
      </trkpt>
      <trkpt lat="43.67471" lon="7.07671">
        <ele>135.68</ele>
        <time>2011-05-23T08:40:06Z</time>
      </trkpt>
      <trkpt lat="43.67469" lon="7.07671">
        <ele>135.68</ele>
        <time>2011-05-23T08:40:07Z</time>
      </trkpt>
      <trkpt lat="43.67455" lon="7.07679">
        <ele>136.16</ele>
        <time>2011-05-23T08:40:22Z</time>
      </trkpt>
      <trkpt lat="43.67433" lon="7.07692">
        <ele>137.13</ele>
        <time>2011-05-23T08:40:36Z</time>
      </trkpt>
      <trkpt lat="43.67428" lon="7.07696">
        <ele>136.64</ele>
        <time>2011-05-23T08:40:58Z</time>
      </trkpt>
      <trkpt lat="43.67417" lon="7.07706">
        <ele>136.64</ele>
        <time>2011-05-23T08:41:18Z</time>
      </trkpt>
      <trkpt lat="43.67406" lon="7.07715">
        <ele>137.61</ele>
        <time>2011-05-23T08:41:32Z</time>
      </trkpt>
      <trkpt lat="43.67395" lon="7.07718">
        <ele>138.09</ele>
        <time>2011-05-23T08:41:48Z</time>
      </trkpt>
      <trkpt lat="43.67388" lon="7.07715">
        <ele>139.05</ele>
        <time>2011-05-23T08:42:04Z</time>
      </trkpt>
      <trkpt lat="43.67381" lon="7.07712">
        <ele>140.01</ele>
        <time>2011-05-23T08:42:28Z</time>
      </trkpt>
      <trkpt lat="43.67378" lon="7.07713">
        <ele>139.53</ele>
        <time>2011-05-23T08:42:47Z</time>
      </trkpt>
      <trkpt lat="43.67376" lon="7.0771">
        <ele>140.97</ele>
        <time>2011-05-23T08:42:51Z</time>
      </trkpt>
      <trkpt lat="43.67367" lon="7.07683">
        <ele>143.37</ele>
        <time>2011-05-23T08:43:06Z</time>
      </trkpt>
      <trkpt lat="43.67364" lon="7.07669">
        <ele>144.82</ele>
        <time>2011-05-23T08:43:13Z</time>
      </trkpt>
      <trkpt lat="43.67355" lon="7.07643">
        <ele>148.18</ele>
        <time>2011-05-23T08:43:27Z</time>
      </trkpt>
      <trkpt lat="43.67345" lon="7.0762">
        <ele>151.06</ele>
        <time>2011-05-23T08:43:41Z</time>
      </trkpt>
      <trkpt lat="43.67342" lon="7.07608">
        <ele>150.58</ele>
        <time>2011-05-23T08:43:55Z</time>
      </trkpt>
      <trkpt lat="43.67337" lon="7.07597">
        <ele>151.54</ele>
        <time>2011-05-23T08:44:01Z</time>
      </trkpt>
      <trkpt lat="43.67324" lon="7.07552">
        <ele>152.51</ele>
        <time>2011-05-23T08:44:17Z</time>
      </trkpt>
      <trkpt lat="43.67312" lon="7.0749">
        <ele>154.43</ele>
        <time>2011-05-23T08:44:35Z</time>
      </trkpt>
      <trkpt lat="43.67301" lon="7.07433">
        <ele>157.79</ele>
        <time>2011-05-23T08:44:54Z</time>
      </trkpt>
      <trkpt lat="43.67278" lon="7.07389">
        <ele>159.72</ele>
        <time>2011-05-23T08:45:12Z</time>
      </trkpt>
      <trkpt lat="43.67242" lon="7.07354">
        <ele>161.64</ele>
        <time>2011-05-23T08:45:31Z</time>
      </trkpt>
      <trkpt lat="43.67216" lon="7.07322">
        <ele>164.04</ele>
        <time>2011-05-23T08:45:49Z</time>
      </trkpt>
      <trkpt lat="43.6718" lon="7.07283">
        <ele>163.56</ele>
        <time>2011-05-23T08:46:04Z</time>
      </trkpt>
      <trkpt lat="43.67135" lon="7.07252">
        <ele>162.12</ele>
        <time>2011-05-23T08:46:17Z</time>
      </trkpt>
      <trkpt lat="43.67101" lon="7.07236">
        <ele>163.56</ele>
        <time>2011-05-23T08:46:30Z</time>
      </trkpt>
      <trkpt lat="43.67094" lon="7.07232">
        <ele>164.04</ele>
        <time>2011-05-23T08:46:36Z</time>
      </trkpt>
      <trkpt lat="43.67091" lon="7.07228">
        <ele>163.08</ele>
        <time>2011-05-23T08:46:54Z</time>
      </trkpt>
      <trkpt lat="43.67091" lon="7.07228">
        <ele>162.6</ele>
        <time>2011-05-23T08:47:42Z</time>
      </trkpt>
      <trkpt lat="43.67087" lon="7.07226">
        <ele>162.6</ele>
        <time>2011-05-23T08:47:46Z</time>
      </trkpt>
      <trkpt lat="43.67039" lon="7.07208">
        <ele>164.04</ele>
        <time>2011-05-23T08:48:00Z</time>
      </trkpt>
      <trkpt lat="43.66992" lon="7.07205">
        <ele>165.48</ele>
        <time>2011-05-23T08:48:14Z</time>
      </trkpt>
      <trkpt lat="43.66964" lon="7.07191">
        <ele>168.37</ele>
        <time>2011-05-23T08:48:25Z</time>
      </trkpt>
      <trkpt lat="43.66936" lon="7.07168">
        <ele>171.73</ele>
        <time>2011-05-23T08:48:39Z</time>
      </trkpt>
      <trkpt lat="43.66915" lon="7.07156">
        <ele>175.1</ele>
        <time>2011-05-23T08:48:50Z</time>
      </trkpt>
      <trkpt lat="43.66913" lon="7.07156">
        <ele>175.1</ele>
        <time>2011-05-23T08:48:51Z</time>
      </trkpt>
      <trkpt lat="43.66883" lon="7.07142">
        <ele>178.46</ele>
        <time>2011-05-23T08:49:12Z</time>
      </trkpt>
      <trkpt lat="43.66851" lon="7.0713">
        <ele>179.42</ele>
        <time>2011-05-23T08:49:27Z</time>
      </trkpt>
      <trkpt lat="43.66791" lon="7.0709">
        <ele>180.38</ele>
        <time>2011-05-23T08:49:45Z</time>
      </trkpt>
      <trkpt lat="43.66786" lon="7.07081">
        <ele>181.83</ele>
        <time>2011-05-23T08:49:48Z</time>
      </trkpt>
      <trkpt lat="43.66788" lon="7.07071">
        <ele>181.35</ele>
        <time>2011-05-23T08:49:51Z</time>
      </trkpt>
      <trkpt lat="43.66819" lon="7.0703">
        <ele>178.94</ele>
        <time>2011-05-23T08:50:02Z</time>
      </trkpt>
      <trkpt lat="43.66881" lon="7.06963">
        <ele>177.98</ele>
        <time>2011-05-23T08:50:14Z</time>
      </trkpt>
      <trkpt lat="43.6689" lon="7.06953">
        <ele>177.5</ele>
        <time>2011-05-23T08:50:16Z</time>
      </trkpt>
      <trkpt lat="43.66899" lon="7.06927">
        <ele>177.02</ele>
        <time>2011-05-23T08:50:20Z</time>
      </trkpt>
      <trkpt lat="43.66904" lon="7.06891">
        <ele>176.54</ele>
        <time>2011-05-23T08:50:25Z</time>
      </trkpt>
      <trkpt lat="43.669" lon="7.0687">
        <ele>175.1</ele>
        <time>2011-05-23T08:50:29Z</time>
      </trkpt>
      <trkpt lat="43.66895" lon="7.06853">
        <ele>175.58</ele>
        <time>2011-05-23T08:50:33Z</time>
      </trkpt>
      <trkpt lat="43.66905" lon="7.06825">
        <ele>174.14</ele>
        <time>2011-05-23T08:50:47Z</time>
      </trkpt>
      <trkpt lat="43.66908" lon="7.06822">
        <ele>174.14</ele>
        <time>2011-05-23T08:51:06Z</time>
      </trkpt>
      <trkpt lat="43.66907" lon="7.06821">
        <ele>174.14</ele>
        <time>2011-05-23T08:51:32Z</time>
      </trkpt>
      <trkpt lat="43.66906" lon="7.0682">
        <ele>174.62</ele>
        <time>2011-05-23T08:52:18Z</time>
      </trkpt>
      <trkpt lat="43.66906" lon="7.0682">
        <ele>174.62</ele>
        <time>2011-05-23T08:52:24Z</time>
      </trkpt>
    </trkseg>
  </trk>
</gpx>